<?xml version="1.0" encoding="UTF-8" standalone="no" ?>
<gpx xmlns="http://www.topografix.com/GPX/1/1" xmlns:xsi="http://www.w3.org/2001/XMLSchema-instance" xsi:schemaLocation="http://www.topografix.com/GPX/1/1 http://www.topografix.com/GPX/1/1/gpx.xsd" version="1.1" creator="VisuGPX - https://www.visugpx.com">
  <metadata>
    <name>Combe de Paccaly, Aravis</name>
    <desc><![CDATA[AlpineQuest Track 13/04/2019 09:20:35]]></desc>
  </metadata>
  <trk>
    <name><![CDATA[paccaly]]></name>
    <trkseg>
      <trkpt lat="45.92369" lon="6.4836">
        <ele>1413.5059814453</ele>
        <time>2019-04-13T07:20:35Z</time>
      </trkpt>
      <trkpt lat="45.92365" lon="6.48349">
        <ele>1420.0469970703</ele>
        <time>2019-04-13T07:20:48Z</time>
      </trkpt>
      <trkpt lat="45.92359" lon="6.48342">
        <ele>1439.8470458984</ele>
        <time>2019-04-13T07:21:08Z</time>
      </trkpt>
      <trkpt lat="45.92351" lon="6.48344">
        <ele>1439.1960449219</ele>
        <time>2019-04-13T07:21:15Z</time>
      </trkpt>
      <trkpt lat="45.92344" lon="6.48348">
        <ele>1439.3609619141</ele>
        <time>2019-04-13T07:21:21Z</time>
      </trkpt>
      <trkpt lat="45.92334" lon="6.48351">
        <ele>1439.3549804688</ele>
        <time>2019-04-13T07:21:31Z</time>
      </trkpt>
      <trkpt lat="45.92327" lon="6.48354">
        <ele>1439.6629638672</ele>
        <time>2019-04-13T07:21:38Z</time>
      </trkpt>
      <trkpt lat="45.92319" lon="6.48354">
        <ele>1440.2380371094</ele>
        <time>2019-04-13T07:21:45Z</time>
      </trkpt>
      <trkpt lat="45.92312" lon="6.48356">
        <ele>1440.7259521484</ele>
        <time>2019-04-13T07:21:52Z</time>
      </trkpt>
      <trkpt lat="45.92304" lon="6.4836">
        <ele>1441.1030273438</ele>
        <time>2019-04-13T07:21:58Z</time>
      </trkpt>
      <trkpt lat="45.92296" lon="6.48362">
        <ele>1441.3969726562</ele>
        <time>2019-04-13T07:22:04Z</time>
      </trkpt>
      <trkpt lat="45.92289" lon="6.48367">
        <ele>1442.5059814453</ele>
        <time>2019-04-13T07:22:11Z</time>
      </trkpt>
      <trkpt lat="45.92282" lon="6.4837">
        <ele>1443.0520019531</ele>
        <time>2019-04-13T07:22:18Z</time>
      </trkpt>
      <trkpt lat="45.92275" lon="6.48375">
        <ele>1442.9050292969</ele>
        <time>2019-04-13T07:22:25Z</time>
      </trkpt>
      <trkpt lat="45.92269" lon="6.48379">
        <ele>1442.7939453125</ele>
        <time>2019-04-13T07:22:30Z</time>
      </trkpt>
      <trkpt lat="45.92262" lon="6.48384">
        <ele>1442.9479980469</ele>
        <time>2019-04-13T07:22:37Z</time>
      </trkpt>
      <trkpt lat="45.92254" lon="6.48387">
        <ele>1442.2559814453</ele>
        <time>2019-04-13T07:23:31Z</time>
      </trkpt>
      <trkpt lat="45.92247" lon="6.48394">
        <ele>1442.1579589844</ele>
        <time>2019-04-13T07:23:42Z</time>
      </trkpt>
      <trkpt lat="45.92243" lon="6.48404">
        <ele>1442.83203125</ele>
        <time>2019-04-13T07:23:50Z</time>
      </trkpt>
      <trkpt lat="45.92242" lon="6.48416">
        <ele>1443.5119628906</ele>
        <time>2019-04-13T07:23:57Z</time>
      </trkpt>
      <trkpt lat="45.9224" lon="6.48426">
        <ele>1444.2790527344</ele>
        <time>2019-04-13T07:24:03Z</time>
      </trkpt>
      <trkpt lat="45.92234" lon="6.48421">
        <ele>1449.375</ele>
        <time>2019-04-13T07:27:15Z</time>
      </trkpt>
      <trkpt lat="45.92229" lon="6.4843">
        <ele>1450.0959472656</ele>
        <time>2019-04-13T07:27:22Z</time>
      </trkpt>
      <trkpt lat="45.92224" lon="6.48439">
        <ele>1451.0949707031</ele>
        <time>2019-04-13T07:27:28Z</time>
      </trkpt>
      <trkpt lat="45.9222" lon="6.48448">
        <ele>1452.0179443359</ele>
        <time>2019-04-13T07:27:34Z</time>
      </trkpt>
      <trkpt lat="45.92214" lon="6.48456">
        <ele>1452.3940429688</ele>
        <time>2019-04-13T07:27:45Z</time>
      </trkpt>
      <trkpt lat="45.92209" lon="6.48464">
        <ele>1452.0439453125</ele>
        <time>2019-04-13T07:27:56Z</time>
      </trkpt>
      <trkpt lat="45.92202" lon="6.48469">
        <ele>1452.0770263672</ele>
        <time>2019-04-13T07:28:05Z</time>
      </trkpt>
      <trkpt lat="45.92197" lon="6.48477">
        <ele>1452.8890380859</ele>
        <time>2019-04-13T07:28:14Z</time>
      </trkpt>
      <trkpt lat="45.92194" lon="6.48488">
        <ele>1453.6350097656</ele>
        <time>2019-04-13T07:28:23Z</time>
      </trkpt>
      <trkpt lat="45.9219" lon="6.48497">
        <ele>1453.2409667969</ele>
        <time>2019-04-13T07:28:31Z</time>
      </trkpt>
      <trkpt lat="45.92185" lon="6.48505">
        <ele>1452.9909667969</ele>
        <time>2019-04-13T07:28:38Z</time>
      </trkpt>
      <trkpt lat="45.92181" lon="6.48517">
        <ele>1453.1379394531</ele>
        <time>2019-04-13T07:28:45Z</time>
      </trkpt>
      <trkpt lat="45.92177" lon="6.48526">
        <ele>1454.0970458984</ele>
        <time>2019-04-13T07:28:57Z</time>
      </trkpt>
      <trkpt lat="45.92172" lon="6.48533">
        <ele>1454.4649658203</ele>
        <time>2019-04-13T07:29:03Z</time>
      </trkpt>
      <trkpt lat="45.92168" lon="6.48543">
        <ele>1455.5610351562</ele>
        <time>2019-04-13T07:29:11Z</time>
      </trkpt>
      <trkpt lat="45.92165" lon="6.48553">
        <ele>1456.5150146484</ele>
        <time>2019-04-13T07:29:18Z</time>
      </trkpt>
      <trkpt lat="45.92162" lon="6.48562">
        <ele>1457.5080566406</ele>
        <time>2019-04-13T07:29:27Z</time>
      </trkpt>
      <trkpt lat="45.92157" lon="6.48572">
        <ele>1458.7020263672</ele>
        <time>2019-04-13T07:29:36Z</time>
      </trkpt>
      <trkpt lat="45.92153" lon="6.48582">
        <ele>1459.6850585938</ele>
        <time>2019-04-13T07:29:43Z</time>
      </trkpt>
      <trkpt lat="45.92149" lon="6.48591">
        <ele>1460.3830566406</ele>
        <time>2019-04-13T07:29:51Z</time>
      </trkpt>
      <trkpt lat="45.92145" lon="6.486">
        <ele>1460.8189697266</ele>
        <time>2019-04-13T07:30:01Z</time>
      </trkpt>
      <trkpt lat="45.92141" lon="6.4861">
        <ele>1460.7440185547</ele>
        <time>2019-04-13T07:30:10Z</time>
      </trkpt>
      <trkpt lat="45.92136" lon="6.48618">
        <ele>1460.7280273438</ele>
        <time>2019-04-13T07:30:19Z</time>
      </trkpt>
      <trkpt lat="45.92131" lon="6.48626">
        <ele>1461.9210205078</ele>
        <time>2019-04-13T07:30:28Z</time>
      </trkpt>
      <trkpt lat="45.92128" lon="6.48635">
        <ele>1462.6009521484</ele>
        <time>2019-04-13T07:30:36Z</time>
      </trkpt>
      <trkpt lat="45.92124" lon="6.48645">
        <ele>1463.5889892578</ele>
        <time>2019-04-13T07:30:45Z</time>
      </trkpt>
      <trkpt lat="45.92124" lon="6.48656">
        <ele>1464.7509765625</ele>
        <time>2019-04-13T07:30:55Z</time>
      </trkpt>
      <trkpt lat="45.92126" lon="6.48666">
        <ele>1466.8160400391</ele>
        <time>2019-04-13T07:31:06Z</time>
      </trkpt>
      <trkpt lat="45.92129" lon="6.48676">
        <ele>1467.4239501953</ele>
        <time>2019-04-13T07:31:15Z</time>
      </trkpt>
      <trkpt lat="45.92134" lon="6.48685">
        <ele>1467.0720214844</ele>
        <time>2019-04-13T07:31:22Z</time>
      </trkpt>
      <trkpt lat="45.92139" lon="6.48693">
        <ele>1466.7629394531</ele>
        <time>2019-04-13T07:31:31Z</time>
      </trkpt>
      <trkpt lat="45.92145" lon="6.487">
        <ele>1467.0190429688</ele>
        <time>2019-04-13T07:31:36Z</time>
      </trkpt>
      <trkpt lat="45.9215" lon="6.48708">
        <ele>1467.2170410156</ele>
        <time>2019-04-13T07:31:45Z</time>
      </trkpt>
      <trkpt lat="45.92156" lon="6.48716">
        <ele>1466.9169921875</ele>
        <time>2019-04-13T07:31:50Z</time>
      </trkpt>
      <trkpt lat="45.9216" lon="6.48725">
        <ele>1466.16796875</ele>
        <time>2019-04-13T07:31:57Z</time>
      </trkpt>
      <trkpt lat="45.92163" lon="6.48735">
        <ele>1465.7230224609</ele>
        <time>2019-04-13T07:32:05Z</time>
      </trkpt>
      <trkpt lat="45.92166" lon="6.48745">
        <ele>1464.4320068359</ele>
        <time>2019-04-13T07:32:11Z</time>
      </trkpt>
      <trkpt lat="45.92169" lon="6.48766">
        <ele>1462.5310058594</ele>
        <time>2019-04-13T07:32:21Z</time>
      </trkpt>
      <trkpt lat="45.92172" lon="6.48777">
        <ele>1461.2900390625</ele>
        <time>2019-04-13T07:32:28Z</time>
      </trkpt>
      <trkpt lat="45.92176" lon="6.48787">
        <ele>1459.4899902344</ele>
        <time>2019-04-13T07:32:35Z</time>
      </trkpt>
      <trkpt lat="45.92179" lon="6.48808">
        <ele>1458.7449951172</ele>
        <time>2019-04-13T07:32:47Z</time>
      </trkpt>
      <trkpt lat="45.92178" lon="6.4882">
        <ele>1458.5009765625</ele>
        <time>2019-04-13T07:32:53Z</time>
      </trkpt>
      <trkpt lat="45.92175" lon="6.48829">
        <ele>1459.0269775391</ele>
        <time>2019-04-13T07:32:59Z</time>
      </trkpt>
      <trkpt lat="45.92171" lon="6.48838">
        <ele>1459.5570068359</ele>
        <time>2019-04-13T07:33:04Z</time>
      </trkpt>
      <trkpt lat="45.92168" lon="6.4885">
        <ele>1459.5870361328</ele>
        <time>2019-04-13T07:33:09Z</time>
      </trkpt>
      <trkpt lat="45.92165" lon="6.48861">
        <ele>1459.6789550781</ele>
        <time>2019-04-13T07:33:16Z</time>
      </trkpt>
      <trkpt lat="45.92164" lon="6.48872">
        <ele>1459.5920410156</ele>
        <time>2019-04-13T07:33:23Z</time>
      </trkpt>
      <trkpt lat="45.92168" lon="6.48882">
        <ele>1459.1049804688</ele>
        <time>2019-04-13T07:33:30Z</time>
      </trkpt>
      <trkpt lat="45.92174" lon="6.4889">
        <ele>1458.4670410156</ele>
        <time>2019-04-13T07:33:38Z</time>
      </trkpt>
      <trkpt lat="45.92179" lon="6.48899">
        <ele>1458.2189941406</ele>
        <time>2019-04-13T07:33:45Z</time>
      </trkpt>
      <trkpt lat="45.92184" lon="6.48906">
        <ele>1458.3289794922</ele>
        <time>2019-04-13T07:33:52Z</time>
      </trkpt>
      <trkpt lat="45.92191" lon="6.48911">
        <ele>1458.3759765625</ele>
        <time>2019-04-13T07:34:01Z</time>
      </trkpt>
      <trkpt lat="45.92196" lon="6.48918">
        <ele>1457.2609863281</ele>
        <time>2019-04-13T07:34:09Z</time>
      </trkpt>
      <trkpt lat="45.92201" lon="6.48926">
        <ele>1455.4849853516</ele>
        <time>2019-04-13T07:34:17Z</time>
      </trkpt>
      <trkpt lat="45.92206" lon="6.48935">
        <ele>1455.2810058594</ele>
        <time>2019-04-13T07:34:24Z</time>
      </trkpt>
      <trkpt lat="45.9221" lon="6.48945">
        <ele>1455.3439941406</ele>
        <time>2019-04-13T07:34:32Z</time>
      </trkpt>
      <trkpt lat="45.92214" lon="6.48954">
        <ele>1454.2370605469</ele>
        <time>2019-04-13T07:34:41Z</time>
      </trkpt>
      <trkpt lat="45.92219" lon="6.48964">
        <ele>1453.7879638672</ele>
        <time>2019-04-13T07:34:50Z</time>
      </trkpt>
      <trkpt lat="45.92225" lon="6.48971">
        <ele>1453.7270507812</ele>
        <time>2019-04-13T07:34:58Z</time>
      </trkpt>
      <trkpt lat="45.92232" lon="6.48978">
        <ele>1454.0069580078</ele>
        <time>2019-04-13T07:35:08Z</time>
      </trkpt>
      <trkpt lat="45.92237" lon="6.48987">
        <ele>1454.33203125</ele>
        <time>2019-04-13T07:35:17Z</time>
      </trkpt>
      <trkpt lat="45.92242" lon="6.48994">
        <ele>1455.7099609375</ele>
        <time>2019-04-13T07:35:25Z</time>
      </trkpt>
      <trkpt lat="45.92247" lon="6.49003">
        <ele>1455.3079833984</ele>
        <time>2019-04-13T07:35:34Z</time>
      </trkpt>
      <trkpt lat="45.92253" lon="6.49009">
        <ele>1455.3819580078</ele>
        <time>2019-04-13T07:35:42Z</time>
      </trkpt>
      <trkpt lat="45.92259" lon="6.49016">
        <ele>1454.8380126953</ele>
        <time>2019-04-13T07:35:51Z</time>
      </trkpt>
      <trkpt lat="45.92266" lon="6.49023">
        <ele>1454.1169433594</ele>
        <time>2019-04-13T07:36:02Z</time>
      </trkpt>
      <trkpt lat="45.92271" lon="6.49031">
        <ele>1456.0870361328</ele>
        <time>2019-04-13T07:36:09Z</time>
      </trkpt>
      <trkpt lat="45.92276" lon="6.49039">
        <ele>1456.7020263672</ele>
        <time>2019-04-13T07:36:17Z</time>
      </trkpt>
      <trkpt lat="45.92281" lon="6.49046">
        <ele>1457.5860595703</ele>
        <time>2019-04-13T07:36:27Z</time>
      </trkpt>
      <trkpt lat="45.92288" lon="6.49053">
        <ele>1457.3819580078</ele>
        <time>2019-04-13T07:36:38Z</time>
      </trkpt>
      <trkpt lat="45.92295" lon="6.49057">
        <ele>1459.2950439453</ele>
        <time>2019-04-13T07:36:48Z</time>
      </trkpt>
      <trkpt lat="45.92301" lon="6.49063">
        <ele>1461.8070068359</ele>
        <time>2019-04-13T07:36:57Z</time>
      </trkpt>
      <trkpt lat="45.92309" lon="6.49066">
        <ele>1463.9399414062</ele>
        <time>2019-04-13T07:37:05Z</time>
      </trkpt>
      <trkpt lat="45.92317" lon="6.49069">
        <ele>1465.7829589844</ele>
        <time>2019-04-13T07:37:14Z</time>
      </trkpt>
      <trkpt lat="45.92325" lon="6.49073">
        <ele>1467.9150390625</ele>
        <time>2019-04-13T07:37:28Z</time>
      </trkpt>
      <trkpt lat="45.92333" lon="6.49074">
        <ele>1468.6020507812</ele>
        <time>2019-04-13T07:37:33Z</time>
      </trkpt>
      <trkpt lat="45.92337" lon="6.49082">
        <ele>1471.3380126953</ele>
        <time>2019-04-13T07:37:47Z</time>
      </trkpt>
      <trkpt lat="45.92344" lon="6.49087">
        <ele>1472.7969970703</ele>
        <time>2019-04-13T07:37:56Z</time>
      </trkpt>
      <trkpt lat="45.92351" lon="6.49092">
        <ele>1473.4399414062</ele>
        <time>2019-04-13T07:38:05Z</time>
      </trkpt>
      <trkpt lat="45.92357" lon="6.49098">
        <ele>1475.1330566406</ele>
        <time>2019-04-13T07:38:15Z</time>
      </trkpt>
      <trkpt lat="45.92365" lon="6.49104">
        <ele>1475.8990478516</ele>
        <time>2019-04-13T07:38:24Z</time>
      </trkpt>
      <trkpt lat="45.92371" lon="6.49109">
        <ele>1476.376953125</ele>
        <time>2019-04-13T07:38:31Z</time>
      </trkpt>
      <trkpt lat="45.92378" lon="6.49111">
        <ele>1476.6629638672</ele>
        <time>2019-04-13T07:38:43Z</time>
      </trkpt>
      <trkpt lat="45.92386" lon="6.49113">
        <ele>1476.6400146484</ele>
        <time>2019-04-13T07:38:51Z</time>
      </trkpt>
      <trkpt lat="45.92393" lon="6.49111">
        <ele>1477.9909667969</ele>
        <time>2019-04-13T07:39:03Z</time>
      </trkpt>
      <trkpt lat="45.92401" lon="6.49111">
        <ele>1480.1669921875</ele>
        <time>2019-04-13T07:39:11Z</time>
      </trkpt>
      <trkpt lat="45.92409" lon="6.49111">
        <ele>1481.4770507812</ele>
        <time>2019-04-13T07:39:20Z</time>
      </trkpt>
      <trkpt lat="45.92416" lon="6.49111">
        <ele>1482.1879882812</ele>
        <time>2019-04-13T07:39:28Z</time>
      </trkpt>
      <trkpt lat="45.92424" lon="6.4911">
        <ele>1483.8370361328</ele>
        <time>2019-04-13T07:39:38Z</time>
      </trkpt>
      <trkpt lat="45.92432" lon="6.49109">
        <ele>1485.20703125</ele>
        <time>2019-04-13T07:39:46Z</time>
      </trkpt>
      <trkpt lat="45.92439" lon="6.49113">
        <ele>1486.3399658203</ele>
        <time>2019-04-13T07:39:57Z</time>
      </trkpt>
      <trkpt lat="45.92447" lon="6.49118">
        <ele>1488.7679443359</ele>
        <time>2019-04-13T07:40:08Z</time>
      </trkpt>
      <trkpt lat="45.92453" lon="6.49124">
        <ele>1489.4499511719</ele>
        <time>2019-04-13T07:40:19Z</time>
      </trkpt>
      <trkpt lat="45.92458" lon="6.49132">
        <ele>1489.8780517578</ele>
        <time>2019-04-13T07:40:29Z</time>
      </trkpt>
      <trkpt lat="45.92463" lon="6.4914">
        <ele>1491.4219970703</ele>
        <time>2019-04-13T07:40:38Z</time>
      </trkpt>
      <trkpt lat="45.92468" lon="6.49148">
        <ele>1493.1149902344</ele>
        <time>2019-04-13T07:40:45Z</time>
      </trkpt>
      <trkpt lat="45.92474" lon="6.49156">
        <ele>1494.2919921875</ele>
        <time>2019-04-13T07:40:55Z</time>
      </trkpt>
      <trkpt lat="45.92478" lon="6.49166">
        <ele>1494.7550048828</ele>
        <time>2019-04-13T07:41:01Z</time>
      </trkpt>
      <trkpt lat="45.92488" lon="6.49184">
        <ele>1494.8830566406</ele>
        <time>2019-04-13T07:41:10Z</time>
      </trkpt>
      <trkpt lat="45.925" lon="6.49197">
        <ele>1494.8900146484</ele>
        <time>2019-04-13T07:41:17Z</time>
      </trkpt>
      <trkpt lat="45.92508" lon="6.49199">
        <ele>1495.6650390625</ele>
        <time>2019-04-13T07:41:25Z</time>
      </trkpt>
      <trkpt lat="45.92516" lon="6.49202">
        <ele>1495.9730224609</ele>
        <time>2019-04-13T07:41:31Z</time>
      </trkpt>
      <trkpt lat="45.92523" lon="6.49206">
        <ele>1496.3060302734</ele>
        <time>2019-04-13T07:41:38Z</time>
      </trkpt>
      <trkpt lat="45.9253" lon="6.49211">
        <ele>1496.1750488281</ele>
        <time>2019-04-13T07:41:44Z</time>
      </trkpt>
      <trkpt lat="45.92538" lon="6.49217">
        <ele>1496.3380126953</ele>
        <time>2019-04-13T07:41:52Z</time>
      </trkpt>
      <trkpt lat="45.92546" lon="6.49221">
        <ele>1497.0970458984</ele>
        <time>2019-04-13T07:41:59Z</time>
      </trkpt>
      <trkpt lat="45.92553" lon="6.49221">
        <ele>1497.4599609375</ele>
        <time>2019-04-13T07:42:04Z</time>
      </trkpt>
      <trkpt lat="45.92561" lon="6.49223">
        <ele>1497.3249511719</ele>
        <time>2019-04-13T07:42:11Z</time>
      </trkpt>
      <trkpt lat="45.92568" lon="6.49223">
        <ele>1497.2380371094</ele>
        <time>2019-04-13T07:42:19Z</time>
      </trkpt>
      <trkpt lat="45.92576" lon="6.49226">
        <ele>1496.5589599609</ele>
        <time>2019-04-13T07:42:29Z</time>
      </trkpt>
      <trkpt lat="45.92583" lon="6.49229">
        <ele>1496.3430175781</ele>
        <time>2019-04-13T07:42:37Z</time>
      </trkpt>
      <trkpt lat="45.92591" lon="6.49231">
        <ele>1496.0200195312</ele>
        <time>2019-04-13T07:42:43Z</time>
      </trkpt>
      <trkpt lat="45.92599" lon="6.49231">
        <ele>1495.6979980469</ele>
        <time>2019-04-13T07:42:51Z</time>
      </trkpt>
      <trkpt lat="45.92608" lon="6.49232">
        <ele>1495.7049560547</ele>
        <time>2019-04-13T07:42:57Z</time>
      </trkpt>
      <trkpt lat="45.92616" lon="6.49235">
        <ele>1495.8919677734</ele>
        <time>2019-04-13T07:43:03Z</time>
      </trkpt>
      <trkpt lat="45.92623" lon="6.4924">
        <ele>1494.8549804688</ele>
        <time>2019-04-13T07:43:13Z</time>
      </trkpt>
      <trkpt lat="45.92627" lon="6.49248">
        <ele>1494.2049560547</ele>
        <time>2019-04-13T07:43:18Z</time>
      </trkpt>
      <trkpt lat="45.92634" lon="6.49254">
        <ele>1493.4620361328</ele>
        <time>2019-04-13T07:43:23Z</time>
      </trkpt>
      <trkpt lat="45.92641" lon="6.49259">
        <ele>1493.3070068359</ele>
        <time>2019-04-13T07:43:31Z</time>
      </trkpt>
      <trkpt lat="45.92649" lon="6.49259">
        <ele>1493.3389892578</ele>
        <time>2019-04-13T07:43:38Z</time>
      </trkpt>
      <trkpt lat="45.92656" lon="6.49263">
        <ele>1493.6979980469</ele>
        <time>2019-04-13T07:43:46Z</time>
      </trkpt>
      <trkpt lat="45.9267" lon="6.49272">
        <ele>1493.7709960938</ele>
        <time>2019-04-13T07:43:54Z</time>
      </trkpt>
      <trkpt lat="45.92677" lon="6.49278">
        <ele>1493.8089599609</ele>
        <time>2019-04-13T07:43:59Z</time>
      </trkpt>
      <trkpt lat="45.92683" lon="6.49287">
        <ele>1493.4940185547</ele>
        <time>2019-04-13T07:44:08Z</time>
      </trkpt>
      <trkpt lat="45.92689" lon="6.49292">
        <ele>1492.7270507812</ele>
        <time>2019-04-13T07:44:16Z</time>
      </trkpt>
      <trkpt lat="45.92696" lon="6.49298">
        <ele>1492.0939941406</ele>
        <time>2019-04-13T07:44:24Z</time>
      </trkpt>
      <trkpt lat="45.92701" lon="6.49305">
        <ele>1491.4090576172</ele>
        <time>2019-04-13T07:44:32Z</time>
      </trkpt>
      <trkpt lat="45.92705" lon="6.49316">
        <ele>1490.7960205078</ele>
        <time>2019-04-13T07:44:40Z</time>
      </trkpt>
      <trkpt lat="45.92706" lon="6.49326">
        <ele>1490.6540527344</ele>
        <time>2019-04-13T07:44:47Z</time>
      </trkpt>
      <trkpt lat="45.92709" lon="6.49337">
        <ele>1490.5780029297</ele>
        <time>2019-04-13T07:44:55Z</time>
      </trkpt>
      <trkpt lat="45.92711" lon="6.49347">
        <ele>1490.7280273438</ele>
        <time>2019-04-13T07:45:03Z</time>
      </trkpt>
      <trkpt lat="45.92713" lon="6.49357">
        <ele>1490.9439697266</ele>
        <time>2019-04-13T07:45:11Z</time>
      </trkpt>
      <trkpt lat="45.92716" lon="6.49367">
        <ele>1492.2960205078</ele>
        <time>2019-04-13T07:45:24Z</time>
      </trkpt>
      <trkpt lat="45.92719" lon="6.49378">
        <ele>1493.2390136719</ele>
        <time>2019-04-13T07:45:33Z</time>
      </trkpt>
      <trkpt lat="45.92721" lon="6.49388">
        <ele>1493.4360351562</ele>
        <time>2019-04-13T07:45:38Z</time>
      </trkpt>
      <trkpt lat="45.92725" lon="6.49398">
        <ele>1493.4410400391</ele>
        <time>2019-04-13T07:45:45Z</time>
      </trkpt>
      <trkpt lat="45.92728" lon="6.49408">
        <ele>1493.7099609375</ele>
        <time>2019-04-13T07:45:55Z</time>
      </trkpt>
      <trkpt lat="45.92732" lon="6.49418">
        <ele>1493.8609619141</ele>
        <time>2019-04-13T07:46:02Z</time>
      </trkpt>
      <trkpt lat="45.92735" lon="6.49428">
        <ele>1494.0849609375</ele>
        <time>2019-04-13T07:46:09Z</time>
      </trkpt>
      <trkpt lat="45.92734" lon="6.49439">
        <ele>1495.0269775391</ele>
        <time>2019-04-13T07:46:21Z</time>
      </trkpt>
      <trkpt lat="45.92729" lon="6.49448">
        <ele>1497.4270019531</ele>
        <time>2019-04-13T07:46:33Z</time>
      </trkpt>
      <trkpt lat="45.9273" lon="6.49458">
        <ele>1499.875</ele>
        <time>2019-04-13T07:46:47Z</time>
      </trkpt>
      <trkpt lat="45.92721" lon="6.49455">
        <ele>1505.0699462891</ele>
        <time>2019-04-13T07:54:37Z</time>
      </trkpt>
      <trkpt lat="45.92714" lon="6.49454">
        <ele>1504.5209960938</ele>
        <time>2019-04-13T07:54:43Z</time>
      </trkpt>
      <trkpt lat="45.92706" lon="6.49452">
        <ele>1504.4410400391</ele>
        <time>2019-04-13T07:54:52Z</time>
      </trkpt>
      <trkpt lat="45.92699" lon="6.4945">
        <ele>1505.0030517578</ele>
        <time>2019-04-13T07:55:10Z</time>
      </trkpt>
      <trkpt lat="45.92691" lon="6.49449">
        <ele>1505.6099853516</ele>
        <time>2019-04-13T07:55:18Z</time>
      </trkpt>
      <trkpt lat="45.92684" lon="6.49451">
        <ele>1506.4339599609</ele>
        <time>2019-04-13T07:55:30Z</time>
      </trkpt>
      <trkpt lat="45.92675" lon="6.49453">
        <ele>1507.1429443359</ele>
        <time>2019-04-13T07:55:38Z</time>
      </trkpt>
      <trkpt lat="45.92669" lon="6.4946">
        <ele>1507.6300048828</ele>
        <time>2019-04-13T07:55:47Z</time>
      </trkpt>
      <trkpt lat="45.92665" lon="6.49469">
        <ele>1509.0219726562</ele>
        <time>2019-04-13T07:55:58Z</time>
      </trkpt>
      <trkpt lat="45.9266" lon="6.49478">
        <ele>1509.1330566406</ele>
        <time>2019-04-13T07:56:13Z</time>
      </trkpt>
      <trkpt lat="45.92656" lon="6.49488">
        <ele>1508.5389404297</ele>
        <time>2019-04-13T07:56:24Z</time>
      </trkpt>
      <trkpt lat="45.92652" lon="6.49498">
        <ele>1508.0469970703</ele>
        <time>2019-04-13T07:56:34Z</time>
      </trkpt>
      <trkpt lat="45.92651" lon="6.49509">
        <ele>1506.6610107422</ele>
        <time>2019-04-13T07:56:43Z</time>
      </trkpt>
      <trkpt lat="45.9265" lon="6.49519">
        <ele>1504.0340576172</ele>
        <time>2019-04-13T07:56:53Z</time>
      </trkpt>
      <trkpt lat="45.92649" lon="6.4953">
        <ele>1502.916015625</ele>
        <time>2019-04-13T07:57:03Z</time>
      </trkpt>
      <trkpt lat="45.92648" lon="6.49541">
        <ele>1500.7810058594</ele>
        <time>2019-04-13T07:57:17Z</time>
      </trkpt>
      <trkpt lat="45.92646" lon="6.49553">
        <ele>1500.7120361328</ele>
        <time>2019-04-13T07:57:29Z</time>
      </trkpt>
      <trkpt lat="45.92646" lon="6.49564">
        <ele>1501.5629882812</ele>
        <time>2019-04-13T07:57:37Z</time>
      </trkpt>
      <trkpt lat="45.92643" lon="6.49573">
        <ele>1501.1979980469</ele>
        <time>2019-04-13T07:57:45Z</time>
      </trkpt>
      <trkpt lat="45.92642" lon="6.49585">
        <ele>1501.0050048828</ele>
        <time>2019-04-13T07:57:55Z</time>
      </trkpt>
      <trkpt lat="45.92645" lon="6.49595">
        <ele>1500.9520263672</ele>
        <time>2019-04-13T07:58:05Z</time>
      </trkpt>
      <trkpt lat="45.92647" lon="6.49606">
        <ele>1500.5649414062</ele>
        <time>2019-04-13T07:58:16Z</time>
      </trkpt>
      <trkpt lat="45.92645" lon="6.49616">
        <ele>1501.0639648438</ele>
        <time>2019-04-13T07:58:28Z</time>
      </trkpt>
      <trkpt lat="45.92639" lon="6.49624">
        <ele>1502.1450195312</ele>
        <time>2019-04-13T07:58:44Z</time>
      </trkpt>
      <trkpt lat="45.92633" lon="6.4963">
        <ele>1506.9150390625</ele>
        <time>2019-04-13T07:59:02Z</time>
      </trkpt>
      <trkpt lat="45.92627" lon="6.49642">
        <ele>1510.0510253906</ele>
        <time>2019-04-13T07:59:13Z</time>
      </trkpt>
      <trkpt lat="45.92626" lon="6.49653">
        <ele>1510.7740478516</ele>
        <time>2019-04-13T07:59:23Z</time>
      </trkpt>
      <trkpt lat="45.92625" lon="6.49664">
        <ele>1511.9169921875</ele>
        <time>2019-04-13T07:59:34Z</time>
      </trkpt>
      <trkpt lat="45.92624" lon="6.49675">
        <ele>1513.8759765625</ele>
        <time>2019-04-13T07:59:48Z</time>
      </trkpt>
      <trkpt lat="45.92624" lon="6.49687">
        <ele>1515.3570556641</ele>
        <time>2019-04-13T07:59:57Z</time>
      </trkpt>
      <trkpt lat="45.92625" lon="6.49697">
        <ele>1515.5300292969</ele>
        <time>2019-04-13T08:00:05Z</time>
      </trkpt>
      <trkpt lat="45.92625" lon="6.49708">
        <ele>1515.0589599609</ele>
        <time>2019-04-13T08:00:15Z</time>
      </trkpt>
      <trkpt lat="45.92619" lon="6.49719">
        <ele>1514.9520263672</ele>
        <time>2019-04-13T08:00:20Z</time>
      </trkpt>
      <trkpt lat="45.92621" lon="6.49729">
        <ele>1514.7679443359</ele>
        <time>2019-04-13T08:00:28Z</time>
      </trkpt>
      <trkpt lat="45.92622" lon="6.4974">
        <ele>1515.4279785156</ele>
        <time>2019-04-13T08:00:40Z</time>
      </trkpt>
      <trkpt lat="45.92629" lon="6.49747">
        <ele>1515.0050048828</ele>
        <time>2019-04-13T08:00:54Z</time>
      </trkpt>
      <trkpt lat="45.92636" lon="6.49755">
        <ele>1515.2349853516</ele>
        <time>2019-04-13T08:01:01Z</time>
      </trkpt>
      <trkpt lat="45.92642" lon="6.49759">
        <ele>1515.8289794922</ele>
        <time>2019-04-13T08:01:16Z</time>
      </trkpt>
      <trkpt lat="45.92646" lon="6.49769">
        <ele>1517.0129394531</ele>
        <time>2019-04-13T08:01:28Z</time>
      </trkpt>
      <trkpt lat="45.92651" lon="6.49775">
        <ele>1518.2259521484</ele>
        <time>2019-04-13T08:01:39Z</time>
      </trkpt>
      <trkpt lat="45.92655" lon="6.49785">
        <ele>1520.8160400391</ele>
        <time>2019-04-13T08:01:58Z</time>
      </trkpt>
      <trkpt lat="45.92657" lon="6.49796">
        <ele>1520.5250244141</ele>
        <time>2019-04-13T08:02:10Z</time>
      </trkpt>
      <trkpt lat="45.92657" lon="6.49808">
        <ele>1521.3669433594</ele>
        <time>2019-04-13T08:02:18Z</time>
      </trkpt>
      <trkpt lat="45.9266" lon="6.49818">
        <ele>1524.0240478516</ele>
        <time>2019-04-13T08:02:31Z</time>
      </trkpt>
      <trkpt lat="45.92662" lon="6.49829">
        <ele>1524.8499755859</ele>
        <time>2019-04-13T08:02:46Z</time>
      </trkpt>
      <trkpt lat="45.92666" lon="6.49838">
        <ele>1525.6379394531</ele>
        <time>2019-04-13T08:03:00Z</time>
      </trkpt>
      <trkpt lat="45.92667" lon="6.49848">
        <ele>1527.0560302734</ele>
        <time>2019-04-13T08:03:15Z</time>
      </trkpt>
      <trkpt lat="45.92664" lon="6.49859">
        <ele>1533.0749511719</ele>
        <time>2019-04-13T08:04:34Z</time>
      </trkpt>
      <trkpt lat="45.92661" lon="6.49869">
        <ele>1536.0689697266</ele>
        <time>2019-04-13T08:04:53Z</time>
      </trkpt>
      <trkpt lat="45.9266" lon="6.49879">
        <ele>1538.6870117188</ele>
        <time>2019-04-13T08:05:09Z</time>
      </trkpt>
      <trkpt lat="45.92663" lon="6.4989">
        <ele>1540.0920410156</ele>
        <time>2019-04-13T08:05:24Z</time>
      </trkpt>
      <trkpt lat="45.92663" lon="6.49901">
        <ele>1538.9520263672</ele>
        <time>2019-04-13T08:05:37Z</time>
      </trkpt>
      <trkpt lat="45.92665" lon="6.49912">
        <ele>1539.0520019531</ele>
        <time>2019-04-13T08:05:52Z</time>
      </trkpt>
      <trkpt lat="45.92663" lon="6.49923">
        <ele>1538.8850097656</ele>
        <time>2019-04-13T08:06:08Z</time>
      </trkpt>
      <trkpt lat="45.92664" lon="6.49934">
        <ele>1537.7299804688</ele>
        <time>2019-04-13T08:06:25Z</time>
      </trkpt>
      <trkpt lat="45.92662" lon="6.49945">
        <ele>1540.5439453125</ele>
        <time>2019-04-13T08:06:39Z</time>
      </trkpt>
      <trkpt lat="45.92663" lon="6.49956">
        <ele>1543.7810058594</ele>
        <time>2019-04-13T08:06:55Z</time>
      </trkpt>
      <trkpt lat="45.92662" lon="6.49966">
        <ele>1546.7020263672</ele>
        <time>2019-04-13T08:07:25Z</time>
      </trkpt>
      <trkpt lat="45.92663" lon="6.49977">
        <ele>1550.0340576172</ele>
        <time>2019-04-13T08:07:42Z</time>
      </trkpt>
      <trkpt lat="45.92663" lon="6.49988">
        <ele>1551.4060058594</ele>
        <time>2019-04-13T08:07:53Z</time>
      </trkpt>
      <trkpt lat="45.92664" lon="6.49999">
        <ele>1552.3229980469</ele>
        <time>2019-04-13T08:08:05Z</time>
      </trkpt>
      <trkpt lat="45.92665" lon="6.50009">
        <ele>1553.4200439453</ele>
        <time>2019-04-13T08:08:35Z</time>
      </trkpt>
      <trkpt lat="45.92657" lon="6.50007">
        <ele>1556.6710205078</ele>
        <time>2019-04-13T08:09:00Z</time>
      </trkpt>
      <trkpt lat="45.9265" lon="6.50003">
        <ele>1559.2869873047</ele>
        <time>2019-04-13T08:09:12Z</time>
      </trkpt>
      <trkpt lat="45.92643" lon="6.49998">
        <ele>1561.9010009766</ele>
        <time>2019-04-13T08:09:25Z</time>
      </trkpt>
      <trkpt lat="45.92637" lon="6.49992">
        <ele>1565.5100097656</ele>
        <time>2019-04-13T08:09:41Z</time>
      </trkpt>
      <trkpt lat="45.92632" lon="6.49985">
        <ele>1571.2869873047</ele>
        <time>2019-04-13T08:09:59Z</time>
      </trkpt>
      <trkpt lat="45.92624" lon="6.49983">
        <ele>1573.5620117188</ele>
        <time>2019-04-13T08:10:12Z</time>
      </trkpt>
      <trkpt lat="45.92617" lon="6.49982">
        <ele>1575.3850097656</ele>
        <time>2019-04-13T08:10:26Z</time>
      </trkpt>
      <trkpt lat="45.9261" lon="6.4998">
        <ele>1579.6300048828</ele>
        <time>2019-04-13T08:10:52Z</time>
      </trkpt>
      <trkpt lat="45.92603" lon="6.49973">
        <ele>1581.7600097656</ele>
        <time>2019-04-13T08:11:07Z</time>
      </trkpt>
      <trkpt lat="45.92597" lon="6.49969">
        <ele>1582.1280517578</ele>
        <time>2019-04-13T08:11:17Z</time>
      </trkpt>
      <trkpt lat="45.92589" lon="6.49967">
        <ele>1584.2280273438</ele>
        <time>2019-04-13T08:11:32Z</time>
      </trkpt>
      <trkpt lat="45.92583" lon="6.4996">
        <ele>1586.6149902344</ele>
        <time>2019-04-13T08:11:48Z</time>
      </trkpt>
      <trkpt lat="45.92577" lon="6.49953">
        <ele>1589.2349853516</ele>
        <time>2019-04-13T08:12:03Z</time>
      </trkpt>
      <trkpt lat="45.92573" lon="6.49945">
        <ele>1593.2189941406</ele>
        <time>2019-04-13T08:12:24Z</time>
      </trkpt>
      <trkpt lat="45.92566" lon="6.49942">
        <ele>1595.0319824219</ele>
        <time>2019-04-13T08:12:35Z</time>
      </trkpt>
      <trkpt lat="45.92559" lon="6.49937">
        <ele>1598.4649658203</ele>
        <time>2019-04-13T08:12:57Z</time>
      </trkpt>
      <trkpt lat="45.92552" lon="6.49933">
        <ele>1599.2619628906</ele>
        <time>2019-04-13T08:13:13Z</time>
      </trkpt>
      <trkpt lat="45.92546" lon="6.49926">
        <ele>1600.6510009766</ele>
        <time>2019-04-13T08:13:29Z</time>
      </trkpt>
      <trkpt lat="45.9254" lon="6.49921">
        <ele>1602.4799804688</ele>
        <time>2019-04-13T08:13:44Z</time>
      </trkpt>
      <trkpt lat="45.92533" lon="6.49927">
        <ele>1603.3220214844</ele>
        <time>2019-04-13T08:14:05Z</time>
      </trkpt>
      <trkpt lat="45.92534" lon="6.49938">
        <ele>1604.6700439453</ele>
        <time>2019-04-13T08:14:34Z</time>
      </trkpt>
      <trkpt lat="45.92537" lon="6.49948">
        <ele>1609.1610107422</ele>
        <time>2019-04-13T08:15:01Z</time>
      </trkpt>
      <trkpt lat="45.92539" lon="6.49958">
        <ele>1612.3220214844</ele>
        <time>2019-04-13T08:15:31Z</time>
      </trkpt>
      <trkpt lat="45.92541" lon="6.49969">
        <ele>1613.0789794922</ele>
        <time>2019-04-13T08:15:42Z</time>
      </trkpt>
      <trkpt lat="45.92545" lon="6.49978">
        <ele>1614.5560302734</ele>
        <time>2019-04-13T08:15:53Z</time>
      </trkpt>
      <trkpt lat="45.92547" lon="6.49989">
        <ele>1615.9830322266</ele>
        <time>2019-04-13T08:16:09Z</time>
      </trkpt>
      <trkpt lat="45.92548" lon="6.5">
        <ele>1618.5789794922</ele>
        <time>2019-04-13T08:16:22Z</time>
      </trkpt>
      <trkpt lat="45.92548" lon="6.50011">
        <ele>1620.041015625</ele>
        <time>2019-04-13T08:16:38Z</time>
      </trkpt>
      <trkpt lat="45.92549" lon="6.50021">
        <ele>1621.2049560547</ele>
        <time>2019-04-13T08:16:56Z</time>
      </trkpt>
      <trkpt lat="45.92549" lon="6.50031">
        <ele>1625.2409667969</ele>
        <time>2019-04-13T08:17:14Z</time>
      </trkpt>
      <trkpt lat="45.92551" lon="6.50042">
        <ele>1625.9990234375</ele>
        <time>2019-04-13T08:17:19Z</time>
      </trkpt>
      <trkpt lat="45.92552" lon="6.50053">
        <ele>1626.8609619141</ele>
        <time>2019-04-13T08:17:28Z</time>
      </trkpt>
      <trkpt lat="45.92551" lon="6.50063">
        <ele>1626.6960449219</ele>
        <time>2019-04-13T08:17:40Z</time>
      </trkpt>
      <trkpt lat="45.92552" lon="6.50074">
        <ele>1629.5600585938</ele>
        <time>2019-04-13T08:18:02Z</time>
      </trkpt>
      <trkpt lat="45.92551" lon="6.50085">
        <ele>1634.9930419922</ele>
        <time>2019-04-13T08:18:30Z</time>
      </trkpt>
      <trkpt lat="45.92553" lon="6.50095">
        <ele>1637.2919921875</ele>
        <time>2019-04-13T08:18:49Z</time>
      </trkpt>
      <trkpt lat="45.92552" lon="6.50107">
        <ele>1642.2230224609</ele>
        <time>2019-04-13T08:19:08Z</time>
      </trkpt>
      <trkpt lat="45.92553" lon="6.50117">
        <ele>1643.0939941406</ele>
        <time>2019-04-13T08:19:23Z</time>
      </trkpt>
      <trkpt lat="45.92557" lon="6.50127">
        <ele>1644.2239990234</ele>
        <time>2019-04-13T08:19:37Z</time>
      </trkpt>
      <trkpt lat="45.9256" lon="6.50137">
        <ele>1645.0999755859</ele>
        <time>2019-04-13T08:19:49Z</time>
      </trkpt>
      <trkpt lat="45.92554" lon="6.50143">
        <ele>1649.8699951172</ele>
        <time>2019-04-13T08:20:37Z</time>
      </trkpt>
      <trkpt lat="45.92546" lon="6.50142">
        <ele>1651.7600097656</ele>
        <time>2019-04-13T08:20:47Z</time>
      </trkpt>
      <trkpt lat="45.92539" lon="6.5014">
        <ele>1654.2099609375</ele>
        <time>2019-04-13T08:21:07Z</time>
      </trkpt>
      <trkpt lat="45.92542" lon="6.5015">
        <ele>1660.0949707031</ele>
        <time>2019-04-13T08:21:39Z</time>
      </trkpt>
      <trkpt lat="45.92543" lon="6.5016">
        <ele>1661.2740478516</ele>
        <time>2019-04-13T08:21:58Z</time>
      </trkpt>
      <trkpt lat="45.92543" lon="6.50171">
        <ele>1660.8029785156</ele>
        <time>2019-04-13T08:22:11Z</time>
      </trkpt>
      <trkpt lat="45.92538" lon="6.50178">
        <ele>1663.6369628906</ele>
        <time>2019-04-13T08:22:41Z</time>
      </trkpt>
      <trkpt lat="45.9253" lon="6.50178">
        <ele>1668.1970214844</ele>
        <time>2019-04-13T08:22:59Z</time>
      </trkpt>
      <trkpt lat="45.92528" lon="6.50188">
        <ele>1672.66796875</ele>
        <time>2019-04-13T08:23:24Z</time>
      </trkpt>
      <trkpt lat="45.92523" lon="6.50196">
        <ele>1676.8149414062</ele>
        <time>2019-04-13T08:23:57Z</time>
      </trkpt>
      <trkpt lat="45.92516" lon="6.50194">
        <ele>1685.1600341797</ele>
        <time>2019-04-13T08:24:34Z</time>
      </trkpt>
      <trkpt lat="45.9251" lon="6.50187">
        <ele>1687.6219482422</ele>
        <time>2019-04-13T08:24:51Z</time>
      </trkpt>
      <trkpt lat="45.9251" lon="6.50197">
        <ele>1690.5920410156</ele>
        <time>2019-04-13T08:25:20Z</time>
      </trkpt>
      <trkpt lat="45.92509" lon="6.50208">
        <ele>1691.0369873047</ele>
        <time>2019-04-13T08:25:38Z</time>
      </trkpt>
      <trkpt lat="45.92508" lon="6.5022">
        <ele>1692.0629882812</ele>
        <time>2019-04-13T08:25:49Z</time>
      </trkpt>
      <trkpt lat="45.92502" lon="6.50216">
        <ele>1697.9069824219</ele>
        <time>2019-04-13T08:26:22Z</time>
      </trkpt>
      <trkpt lat="45.92497" lon="6.50207">
        <ele>1699.8179931641</ele>
        <time>2019-04-13T08:26:32Z</time>
      </trkpt>
      <trkpt lat="45.92493" lon="6.50217">
        <ele>1710.625</ele>
        <time>2019-04-13T08:27:46Z</time>
      </trkpt>
      <trkpt lat="45.9249" lon="6.50226">
        <ele>1711.1669921875</ele>
        <time>2019-04-13T08:27:59Z</time>
      </trkpt>
      <trkpt lat="45.92486" lon="6.50236">
        <ele>1711.7299804688</ele>
        <time>2019-04-13T08:28:10Z</time>
      </trkpt>
      <trkpt lat="45.92483" lon="6.50246">
        <ele>1713.08203125</ele>
        <time>2019-04-13T08:28:25Z</time>
      </trkpt>
      <trkpt lat="45.9248" lon="6.50256">
        <ele>1713.9919433594</ele>
        <time>2019-04-13T08:28:40Z</time>
      </trkpt>
      <trkpt lat="45.9248" lon="6.50268">
        <ele>1715.3110351562</ele>
        <time>2019-04-13T08:29:02Z</time>
      </trkpt>
      <trkpt lat="45.9248" lon="6.50279">
        <ele>1716.4730224609</ele>
        <time>2019-04-13T08:29:13Z</time>
      </trkpt>
      <trkpt lat="45.92477" lon="6.5029">
        <ele>1718.2709960938</ele>
        <time>2019-04-13T08:29:26Z</time>
      </trkpt>
      <trkpt lat="45.92474" lon="6.503">
        <ele>1721.5660400391</ele>
        <time>2019-04-13T08:29:44Z</time>
      </trkpt>
      <trkpt lat="45.92473" lon="6.5031">
        <ele>1722.2390136719</ele>
        <time>2019-04-13T08:30:05Z</time>
      </trkpt>
      <trkpt lat="45.92468" lon="6.50319">
        <ele>1725.9399414062</ele>
        <time>2019-04-13T08:30:26Z</time>
      </trkpt>
      <trkpt lat="45.92461" lon="6.50318">
        <ele>1728.6610107422</ele>
        <time>2019-04-13T08:30:38Z</time>
      </trkpt>
      <trkpt lat="45.92453" lon="6.50319">
        <ele>1731.9840087891</ele>
        <time>2019-04-13T08:30:58Z</time>
      </trkpt>
      <trkpt lat="45.92446" lon="6.5032">
        <ele>1733.9899902344</ele>
        <time>2019-04-13T08:31:16Z</time>
      </trkpt>
      <trkpt lat="45.92438" lon="6.50318">
        <ele>1736.7769775391</ele>
        <time>2019-04-13T08:31:32Z</time>
      </trkpt>
      <trkpt lat="45.92434" lon="6.50326">
        <ele>1738.8089599609</ele>
        <time>2019-04-13T08:31:54Z</time>
      </trkpt>
      <trkpt lat="45.92432" lon="6.50337">
        <ele>1740.0069580078</ele>
        <time>2019-04-13T08:32:14Z</time>
      </trkpt>
      <trkpt lat="45.92433" lon="6.50347">
        <ele>1741.4949951172</ele>
        <time>2019-04-13T08:32:27Z</time>
      </trkpt>
      <trkpt lat="45.9243" lon="6.50357">
        <ele>1749.4830322266</ele>
        <time>2019-04-13T08:33:16Z</time>
      </trkpt>
      <trkpt lat="45.92423" lon="6.50357">
        <ele>1753.1169433594</ele>
        <time>2019-04-13T08:33:38Z</time>
      </trkpt>
      <trkpt lat="45.92416" lon="6.50359">
        <ele>1754.7840576172</ele>
        <time>2019-04-13T08:34:07Z</time>
      </trkpt>
      <trkpt lat="45.92413" lon="6.50369">
        <ele>1755.2640380859</ele>
        <time>2019-04-13T08:34:24Z</time>
      </trkpt>
      <trkpt lat="45.92414" lon="6.50379">
        <ele>1758.5069580078</ele>
        <time>2019-04-13T08:34:47Z</time>
      </trkpt>
      <trkpt lat="45.92419" lon="6.50387">
        <ele>1763.0679931641</ele>
        <time>2019-04-13T08:35:05Z</time>
      </trkpt>
      <trkpt lat="45.92423" lon="6.50396">
        <ele>1764.4749755859</ele>
        <time>2019-04-13T08:35:18Z</time>
      </trkpt>
      <trkpt lat="45.92428" lon="6.50404">
        <ele>1764.7800292969</ele>
        <time>2019-04-13T08:35:26Z</time>
      </trkpt>
      <trkpt lat="45.92422" lon="6.50412">
        <ele>1767.4250488281</ele>
        <time>2019-04-13T08:35:49Z</time>
      </trkpt>
      <trkpt lat="45.92415" lon="6.50412">
        <ele>1771.1240234375</ele>
        <time>2019-04-13T08:36:09Z</time>
      </trkpt>
      <trkpt lat="45.92411" lon="6.50423">
        <ele>1779.5080566406</ele>
        <time>2019-04-13T08:36:46Z</time>
      </trkpt>
      <trkpt lat="45.92413" lon="6.50434">
        <ele>1779.0439453125</ele>
        <time>2019-04-13T08:37:04Z</time>
      </trkpt>
      <trkpt lat="45.92414" lon="6.50445">
        <ele>1779.375</ele>
        <time>2019-04-13T08:37:19Z</time>
      </trkpt>
      <trkpt lat="45.92418" lon="6.50455">
        <ele>1780.5169677734</ele>
        <time>2019-04-13T08:37:26Z</time>
      </trkpt>
      <trkpt lat="45.92422" lon="6.50463">
        <ele>1781.7290039062</ele>
        <time>2019-04-13T08:37:39Z</time>
      </trkpt>
      <trkpt lat="45.92426" lon="6.50472">
        <ele>1782.8499755859</ele>
        <time>2019-04-13T08:37:53Z</time>
      </trkpt>
      <trkpt lat="45.92431" lon="6.50479">
        <ele>1782.6619873047</ele>
        <time>2019-04-13T08:38:02Z</time>
      </trkpt>
      <trkpt lat="45.92438" lon="6.50484">
        <ele>1782.8129882812</ele>
        <time>2019-04-13T08:38:19Z</time>
      </trkpt>
      <trkpt lat="45.92445" lon="6.50488">
        <ele>1785.4730224609</ele>
        <time>2019-04-13T08:38:32Z</time>
      </trkpt>
      <trkpt lat="45.92452" lon="6.50492">
        <ele>1786.9189453125</ele>
        <time>2019-04-13T08:38:44Z</time>
      </trkpt>
      <trkpt lat="45.92457" lon="6.505">
        <ele>1787.1020507812</ele>
        <time>2019-04-13T08:38:58Z</time>
      </trkpt>
      <trkpt lat="45.92461" lon="6.50509">
        <ele>1788.6600341797</ele>
        <time>2019-04-13T08:39:20Z</time>
      </trkpt>
      <trkpt lat="45.92462" lon="6.5052">
        <ele>1796.4119873047</ele>
        <time>2019-04-13T08:39:59Z</time>
      </trkpt>
      <trkpt lat="45.92458" lon="6.50529">
        <ele>1793.9439697266</ele>
        <time>2019-04-13T08:40:08Z</time>
      </trkpt>
      <trkpt lat="45.92456" lon="6.5054">
        <ele>1790.9809570312</ele>
        <time>2019-04-13T08:40:26Z</time>
      </trkpt>
      <trkpt lat="45.92452" lon="6.50548">
        <ele>1792.5949707031</ele>
        <time>2019-04-13T08:40:39Z</time>
      </trkpt>
      <trkpt lat="45.92447" lon="6.50556">
        <ele>1802.6820068359</ele>
        <time>2019-04-13T08:41:13Z</time>
      </trkpt>
      <trkpt lat="45.92442" lon="6.50564">
        <ele>1807.5250244141</ele>
        <time>2019-04-13T08:41:33Z</time>
      </trkpt>
      <trkpt lat="45.92435" lon="6.50569">
        <ele>1815.708984375</ele>
        <time>2019-04-13T08:42:10Z</time>
      </trkpt>
      <trkpt lat="45.92428" lon="6.5057">
        <ele>1820.3389892578</ele>
        <time>2019-04-13T08:42:25Z</time>
      </trkpt>
      <trkpt lat="45.9242" lon="6.50571">
        <ele>1822.7060546875</ele>
        <time>2019-04-13T08:42:37Z</time>
      </trkpt>
      <trkpt lat="45.92412" lon="6.50571">
        <ele>1825.916015625</ele>
        <time>2019-04-13T08:42:58Z</time>
      </trkpt>
      <trkpt lat="45.92404" lon="6.5057">
        <ele>1829.9350585938</ele>
        <time>2019-04-13T08:43:14Z</time>
      </trkpt>
      <trkpt lat="45.92396" lon="6.50573">
        <ele>1832.7760009766</ele>
        <time>2019-04-13T08:43:34Z</time>
      </trkpt>
      <trkpt lat="45.92389" lon="6.50575">
        <ele>1834.8430175781</ele>
        <time>2019-04-13T08:43:54Z</time>
      </trkpt>
      <trkpt lat="45.92382" lon="6.50576">
        <ele>1836.8690185547</ele>
        <time>2019-04-13T08:44:07Z</time>
      </trkpt>
      <trkpt lat="45.92375" lon="6.50575">
        <ele>1838.4200439453</ele>
        <time>2019-04-13T08:44:20Z</time>
      </trkpt>
      <trkpt lat="45.92367" lon="6.50575">
        <ele>1841.2740478516</ele>
        <time>2019-04-13T08:44:42Z</time>
      </trkpt>
      <trkpt lat="45.9236" lon="6.50575">
        <ele>1842.8659667969</ele>
        <time>2019-04-13T08:44:58Z</time>
      </trkpt>
      <trkpt lat="45.92353" lon="6.50569">
        <ele>1844.8310546875</ele>
        <time>2019-04-13T08:45:10Z</time>
      </trkpt>
      <trkpt lat="45.92346" lon="6.50565">
        <ele>1845.8100585938</ele>
        <time>2019-04-13T08:45:27Z</time>
      </trkpt>
      <trkpt lat="45.92346" lon="6.50576">
        <ele>1847.0629882812</ele>
        <time>2019-04-13T08:45:48Z</time>
      </trkpt>
      <trkpt lat="45.9234" lon="6.50582">
        <ele>1849.8459472656</ele>
        <time>2019-04-13T08:46:12Z</time>
      </trkpt>
      <trkpt lat="45.9234" lon="6.50592">
        <ele>1850.5109863281</ele>
        <time>2019-04-13T08:46:26Z</time>
      </trkpt>
      <trkpt lat="45.92342" lon="6.50603">
        <ele>1851.0870361328</ele>
        <time>2019-04-13T08:46:41Z</time>
      </trkpt>
      <trkpt lat="45.92342" lon="6.50614">
        <ele>1850.6070556641</ele>
        <time>2019-04-13T08:47:02Z</time>
      </trkpt>
      <trkpt lat="45.92346" lon="6.50622">
        <ele>1851.6669921875</ele>
        <time>2019-04-13T08:47:16Z</time>
      </trkpt>
      <trkpt lat="45.9235" lon="6.50631">
        <ele>1852.8079833984</ele>
        <time>2019-04-13T08:47:22Z</time>
      </trkpt>
      <trkpt lat="45.92352" lon="6.50646">
        <ele>1855.7330322266</ele>
        <time>2019-04-13T08:47:37Z</time>
      </trkpt>
      <trkpt lat="45.92351" lon="6.50656">
        <ele>1858.4520263672</ele>
        <time>2019-04-13T08:48:45Z</time>
      </trkpt>
      <trkpt lat="45.92351" lon="6.50667">
        <ele>1860.9709472656</ele>
        <time>2019-04-13T08:48:59Z</time>
      </trkpt>
      <trkpt lat="45.92349" lon="6.50677">
        <ele>1863.7800292969</ele>
        <time>2019-04-13T08:49:20Z</time>
      </trkpt>
      <trkpt lat="45.92347" lon="6.50688">
        <ele>1869.7130126953</ele>
        <time>2019-04-13T08:49:51Z</time>
      </trkpt>
      <trkpt lat="45.92346" lon="6.50699">
        <ele>1872.3840332031</ele>
        <time>2019-04-13T08:50:10Z</time>
      </trkpt>
      <trkpt lat="45.92345" lon="6.5071">
        <ele>1873.7800292969</ele>
        <time>2019-04-13T08:50:26Z</time>
      </trkpt>
      <trkpt lat="45.92342" lon="6.5072">
        <ele>1878.6569824219</ele>
        <time>2019-04-13T08:50:45Z</time>
      </trkpt>
      <trkpt lat="45.92341" lon="6.5073">
        <ele>1880.1920166016</ele>
        <time>2019-04-13T08:50:57Z</time>
      </trkpt>
      <trkpt lat="45.92333" lon="6.50733">
        <ele>1880.7700195312</ele>
        <time>2019-04-13T08:51:40Z</time>
      </trkpt>
      <trkpt lat="45.92327" lon="6.50725">
        <ele>1885.4919433594</ele>
        <time>2019-04-13T08:51:57Z</time>
      </trkpt>
      <trkpt lat="45.92322" lon="6.50716">
        <ele>1888.6689453125</ele>
        <time>2019-04-13T08:52:13Z</time>
      </trkpt>
      <trkpt lat="45.92315" lon="6.50711">
        <ele>1890.0059814453</ele>
        <time>2019-04-13T08:52:27Z</time>
      </trkpt>
      <trkpt lat="45.92307" lon="6.50709">
        <ele>1890.9279785156</ele>
        <time>2019-04-13T08:52:47Z</time>
      </trkpt>
      <trkpt lat="45.923" lon="6.50703">
        <ele>1893.8079833984</ele>
        <time>2019-04-13T08:53:04Z</time>
      </trkpt>
      <trkpt lat="45.92294" lon="6.50707">
        <ele>1898.6970214844</ele>
        <time>2019-04-13T08:53:40Z</time>
      </trkpt>
      <trkpt lat="45.92288" lon="6.50714">
        <ele>1896.4949951172</ele>
        <time>2019-04-13T08:54:01Z</time>
      </trkpt>
      <trkpt lat="45.92285" lon="6.50723">
        <ele>1894.3959960938</ele>
        <time>2019-04-13T08:54:14Z</time>
      </trkpt>
      <trkpt lat="45.92282" lon="6.50733">
        <ele>1892.498046875</ele>
        <time>2019-04-13T08:54:28Z</time>
      </trkpt>
      <trkpt lat="45.92279" lon="6.50743">
        <ele>1891.1820068359</ele>
        <time>2019-04-13T08:54:42Z</time>
      </trkpt>
      <trkpt lat="45.92275" lon="6.50753">
        <ele>1889.0899658203</ele>
        <time>2019-04-13T08:54:49Z</time>
      </trkpt>
      <trkpt lat="45.92276" lon="6.50763">
        <ele>1890.4119873047</ele>
        <time>2019-04-13T08:55:15Z</time>
      </trkpt>
      <trkpt lat="45.92278" lon="6.50773">
        <ele>1890.8680419922</ele>
        <time>2019-04-13T08:55:32Z</time>
      </trkpt>
      <trkpt lat="45.92279" lon="6.50785">
        <ele>1894.3399658203</ele>
        <time>2019-04-13T08:56:00Z</time>
      </trkpt>
      <trkpt lat="45.9228" lon="6.50795">
        <ele>1892.5729980469</ele>
        <time>2019-04-13T08:56:19Z</time>
      </trkpt>
      <trkpt lat="45.92288" lon="6.50804">
        <ele>1891.1099853516</ele>
        <time>2019-04-13T08:56:28Z</time>
      </trkpt>
      <trkpt lat="45.92295" lon="6.5081">
        <ele>1893.5290527344</ele>
        <time>2019-04-13T08:56:40Z</time>
      </trkpt>
      <trkpt lat="45.923" lon="6.50818">
        <ele>1897.7719726562</ele>
        <time>2019-04-13T08:56:55Z</time>
      </trkpt>
      <trkpt lat="45.92305" lon="6.5083">
        <ele>1908.2889404297</ele>
        <time>2019-04-13T08:57:36Z</time>
      </trkpt>
      <trkpt lat="45.9231" lon="6.50838">
        <ele>1912.6750488281</ele>
        <time>2019-04-13T08:57:49Z</time>
      </trkpt>
      <trkpt lat="45.92313" lon="6.50849">
        <ele>1913.4079589844</ele>
        <time>2019-04-13T08:57:55Z</time>
      </trkpt>
      <trkpt lat="45.92313" lon="6.50859">
        <ele>1918.2180175781</ele>
        <time>2019-04-13T08:58:09Z</time>
      </trkpt>
      <trkpt lat="45.92307" lon="6.50865">
        <ele>1924.1009521484</ele>
        <time>2019-04-13T08:58:32Z</time>
      </trkpt>
      <trkpt lat="45.92299" lon="6.50865">
        <ele>1929.8719482422</ele>
        <time>2019-04-13T08:58:58Z</time>
      </trkpt>
      <trkpt lat="45.92291" lon="6.50866">
        <ele>1937.126953125</ele>
        <time>2019-04-13T08:59:22Z</time>
      </trkpt>
      <trkpt lat="45.92284" lon="6.50863">
        <ele>1942.5260009766</ele>
        <time>2019-04-13T08:59:43Z</time>
      </trkpt>
      <trkpt lat="45.92277" lon="6.5086">
        <ele>1945.7700195312</ele>
        <time>2019-04-13T09:00:02Z</time>
      </trkpt>
      <trkpt lat="45.9227" lon="6.50856">
        <ele>1949.4169921875</ele>
        <time>2019-04-13T09:00:27Z</time>
      </trkpt>
      <trkpt lat="45.92263" lon="6.50861">
        <ele>1951.0789794922</ele>
        <time>2019-04-13T09:00:48Z</time>
      </trkpt>
      <trkpt lat="45.92259" lon="6.50871">
        <ele>1951.3349609375</ele>
        <time>2019-04-13T09:01:12Z</time>
      </trkpt>
      <trkpt lat="45.92255" lon="6.5088">
        <ele>1952.5699462891</ele>
        <time>2019-04-13T09:01:26Z</time>
      </trkpt>
      <trkpt lat="45.9225" lon="6.50889">
        <ele>1951.6020507812</ele>
        <time>2019-04-13T09:01:38Z</time>
      </trkpt>
      <trkpt lat="45.92248" lon="6.509">
        <ele>1951.9239501953</ele>
        <time>2019-04-13T09:01:59Z</time>
      </trkpt>
      <trkpt lat="45.92248" lon="6.50911">
        <ele>1956.6070556641</ele>
        <time>2019-04-13T09:02:22Z</time>
      </trkpt>
      <trkpt lat="45.9225" lon="6.50922">
        <ele>1961.0679931641</ele>
        <time>2019-04-13T09:02:42Z</time>
      </trkpt>
      <trkpt lat="45.92252" lon="6.50933">
        <ele>1962.291015625</ele>
        <time>2019-04-13T09:02:53Z</time>
      </trkpt>
      <trkpt lat="45.92252" lon="6.50943">
        <ele>1964.4110107422</ele>
        <time>2019-04-13T09:03:07Z</time>
      </trkpt>
      <trkpt lat="45.92256" lon="6.50952">
        <ele>1965.8210449219</ele>
        <time>2019-04-13T09:03:18Z</time>
      </trkpt>
      <trkpt lat="45.92257" lon="6.50965">
        <ele>1967.9110107422</ele>
        <time>2019-04-13T09:03:37Z</time>
      </trkpt>
      <trkpt lat="45.9225" lon="6.50965">
        <ele>1973.2950439453</ele>
        <time>2019-04-13T09:04:06Z</time>
      </trkpt>
      <trkpt lat="45.92243" lon="6.50963">
        <ele>1976.2580566406</ele>
        <time>2019-04-13T09:04:21Z</time>
      </trkpt>
      <trkpt lat="45.92236" lon="6.50959">
        <ele>1982.1099853516</ele>
        <time>2019-04-13T09:04:42Z</time>
      </trkpt>
      <trkpt lat="45.92229" lon="6.50953">
        <ele>1985.5589599609</ele>
        <time>2019-04-13T09:05:03Z</time>
      </trkpt>
      <trkpt lat="45.92222" lon="6.50949">
        <ele>1986.4339599609</ele>
        <time>2019-04-13T09:05:18Z</time>
      </trkpt>
      <trkpt lat="45.92214" lon="6.50945">
        <ele>1987.2650146484</ele>
        <time>2019-04-13T09:05:28Z</time>
      </trkpt>
      <trkpt lat="45.92207" lon="6.50942">
        <ele>1987.4770507812</ele>
        <time>2019-04-13T09:05:37Z</time>
      </trkpt>
      <trkpt lat="45.922" lon="6.5094">
        <ele>1987.8780517578</ele>
        <time>2019-04-13T09:05:49Z</time>
      </trkpt>
      <trkpt lat="45.92193" lon="6.50938">
        <ele>1987.0450439453</ele>
        <time>2019-04-13T09:06:01Z</time>
      </trkpt>
      <trkpt lat="45.92185" lon="6.50934">
        <ele>1985.2449951172</ele>
        <time>2019-04-13T09:06:16Z</time>
      </trkpt>
      <trkpt lat="45.92186" lon="6.50945">
        <ele>1990.1710205078</ele>
        <time>2019-04-13T09:07:01Z</time>
      </trkpt>
      <trkpt lat="45.92179" lon="6.50947">
        <ele>1996.2900390625</ele>
        <time>2019-04-13T09:07:34Z</time>
      </trkpt>
      <trkpt lat="45.92171" lon="6.50945">
        <ele>2003.4439697266</ele>
        <time>2019-04-13T09:08:13Z</time>
      </trkpt>
      <trkpt lat="45.92168" lon="6.50954">
        <ele>2007.2020263672</ele>
        <time>2019-04-13T09:08:37Z</time>
      </trkpt>
      <trkpt lat="45.92161" lon="6.50948">
        <ele>2012.4449462891</ele>
        <time>2019-04-13T09:09:12Z</time>
      </trkpt>
      <trkpt lat="45.92157" lon="6.5094">
        <ele>2016.3349609375</ele>
        <time>2019-04-13T09:09:33Z</time>
      </trkpt>
      <trkpt lat="45.92149" lon="6.50944">
        <ele>2021.1760253906</ele>
        <time>2019-04-13T09:10:03Z</time>
      </trkpt>
      <trkpt lat="45.92142" lon="6.50949">
        <ele>2023.8809814453</ele>
        <time>2019-04-13T09:10:25Z</time>
      </trkpt>
      <trkpt lat="45.92135" lon="6.50955">
        <ele>2025.4000244141</ele>
        <time>2019-04-13T09:10:48Z</time>
      </trkpt>
      <trkpt lat="45.92128" lon="6.50954">
        <ele>2033.0030517578</ele>
        <time>2019-04-13T09:11:41Z</time>
      </trkpt>
      <trkpt lat="45.92121" lon="6.50952">
        <ele>2039.3129882812</ele>
        <time>2019-04-13T09:12:16Z</time>
      </trkpt>
      <trkpt lat="45.92119" lon="6.50942">
        <ele>2041.4050292969</ele>
        <time>2019-04-13T09:12:31Z</time>
      </trkpt>
      <trkpt lat="45.92117" lon="6.50931">
        <ele>2047.4969482422</ele>
        <time>2019-04-13T09:13:24Z</time>
      </trkpt>
      <trkpt lat="45.9211" lon="6.50936">
        <ele>2051.4030761719</ele>
        <time>2019-04-13T09:13:50Z</time>
      </trkpt>
      <trkpt lat="45.92103" lon="6.50942">
        <ele>2051.6320800781</ele>
        <time>2019-04-13T09:14:02Z</time>
      </trkpt>
      <trkpt lat="45.92097" lon="6.50949">
        <ele>2053.4208984375</ele>
        <time>2019-04-13T09:14:31Z</time>
      </trkpt>
      <trkpt lat="45.92091" lon="6.50955">
        <ele>2053.12890625</ele>
        <time>2019-04-13T09:14:40Z</time>
      </trkpt>
      <trkpt lat="45.92085" lon="6.5096">
        <ele>2054.6770019531</ele>
        <time>2019-04-13T09:15:04Z</time>
      </trkpt>
      <trkpt lat="45.92078" lon="6.50966">
        <ele>2057.1550292969</ele>
        <time>2019-04-13T09:15:22Z</time>
      </trkpt>
      <trkpt lat="45.92071" lon="6.5097">
        <ele>2067.7639160156</ele>
        <time>2019-04-13T09:16:22Z</time>
      </trkpt>
      <trkpt lat="45.92064" lon="6.50975">
        <ele>2070.7971191406</ele>
        <time>2019-04-13T09:16:48Z</time>
      </trkpt>
      <trkpt lat="45.92059" lon="6.50983">
        <ele>2079.8330078125</ele>
        <time>2019-04-13T09:23:21Z</time>
      </trkpt>
      <trkpt lat="45.92053" lon="6.50988">
        <ele>2083.6369628906</ele>
        <time>2019-04-13T09:28:12Z</time>
      </trkpt>
      <trkpt lat="45.92047" lon="6.50995">
        <ele>2084.0610351562</ele>
        <time>2019-04-13T09:28:26Z</time>
      </trkpt>
      <trkpt lat="45.9204" lon="6.50999">
        <ele>2084.4079589844</ele>
        <time>2019-04-13T09:28:46Z</time>
      </trkpt>
      <trkpt lat="45.92033" lon="6.51004">
        <ele>2086.4020996094</ele>
        <time>2019-04-13T09:29:05Z</time>
      </trkpt>
      <trkpt lat="45.92028" lon="6.51012">
        <ele>2086.6459960938</ele>
        <time>2019-04-13T09:29:26Z</time>
      </trkpt>
      <trkpt lat="45.92023" lon="6.5102">
        <ele>2087.2260742188</ele>
        <time>2019-04-13T09:29:37Z</time>
      </trkpt>
      <trkpt lat="45.92016" lon="6.51025">
        <ele>2088.2241210938</ele>
        <time>2019-04-13T09:29:49Z</time>
      </trkpt>
      <trkpt lat="45.9201" lon="6.51032">
        <ele>2088.3530273438</ele>
        <time>2019-04-13T09:30:04Z</time>
      </trkpt>
      <trkpt lat="45.92004" lon="6.51025">
        <ele>2100.8029785156</ele>
        <time>2019-04-13T09:31:04Z</time>
      </trkpt>
      <trkpt lat="45.92" lon="6.51015">
        <ele>2105.4780273438</ele>
        <time>2019-04-13T09:31:34Z</time>
      </trkpt>
      <trkpt lat="45.91993" lon="6.51013">
        <ele>2112.4819335938</ele>
        <time>2019-04-13T09:32:20Z</time>
      </trkpt>
      <trkpt lat="45.91986" lon="6.51018">
        <ele>2113.7780761719</ele>
        <time>2019-04-13T09:32:33Z</time>
      </trkpt>
      <trkpt lat="45.9198" lon="6.51025">
        <ele>2113.7661132812</ele>
        <time>2019-04-13T09:32:46Z</time>
      </trkpt>
      <trkpt lat="45.91977" lon="6.51036">
        <ele>2114.1530761719</ele>
        <time>2019-04-13T09:33:10Z</time>
      </trkpt>
      <trkpt lat="45.91972" lon="6.51044">
        <ele>2115.375</ele>
        <time>2019-04-13T09:33:24Z</time>
      </trkpt>
      <trkpt lat="45.91974" lon="6.51056">
        <ele>2120.2900390625</ele>
        <time>2019-04-13T09:33:43Z</time>
      </trkpt>
      <trkpt lat="45.91975" lon="6.51066">
        <ele>2126.2561035156</ele>
        <time>2019-04-13T09:34:00Z</time>
      </trkpt>
      <trkpt lat="45.91979" lon="6.51077">
        <ele>2132.4670410156</ele>
        <time>2019-04-13T09:34:18Z</time>
      </trkpt>
      <trkpt lat="45.91983" lon="6.51086">
        <ele>2134.1530761719</ele>
        <time>2019-04-13T09:34:25Z</time>
      </trkpt>
      <trkpt lat="45.91986" lon="6.51097">
        <ele>2134.5200195312</ele>
        <time>2019-04-13T09:34:47Z</time>
      </trkpt>
      <trkpt lat="45.91988" lon="6.51108">
        <ele>2136.5810546875</ele>
        <time>2019-04-13T09:34:59Z</time>
      </trkpt>
      <trkpt lat="45.91991" lon="6.51118">
        <ele>2138.5061035156</ele>
        <time>2019-04-13T09:35:16Z</time>
      </trkpt>
      <trkpt lat="45.91995" lon="6.51129">
        <ele>2140.6779785156</ele>
        <time>2019-04-13T09:35:33Z</time>
      </trkpt>
      <trkpt lat="45.91992" lon="6.5114">
        <ele>2142.2019042969</ele>
        <time>2019-04-13T09:36:01Z</time>
      </trkpt>
      <trkpt lat="45.91987" lon="6.51148">
        <ele>2142.8669433594</ele>
        <time>2019-04-13T09:36:16Z</time>
      </trkpt>
      <trkpt lat="45.91983" lon="6.51156">
        <ele>2146.0610351562</ele>
        <time>2019-04-13T09:36:36Z</time>
      </trkpt>
      <trkpt lat="45.91976" lon="6.51161">
        <ele>2147.0480957031</ele>
        <time>2019-04-13T09:36:45Z</time>
      </trkpt>
      <trkpt lat="45.9197" lon="6.51167">
        <ele>2146.9099121094</ele>
        <time>2019-04-13T09:36:55Z</time>
      </trkpt>
      <trkpt lat="45.91962" lon="6.51171">
        <ele>2147.3779296875</ele>
        <time>2019-04-13T09:37:06Z</time>
      </trkpt>
      <trkpt lat="45.91956" lon="6.51177">
        <ele>2146.7880859375</ele>
        <time>2019-04-13T09:37:15Z</time>
      </trkpt>
      <trkpt lat="45.91952" lon="6.51188">
        <ele>2148.1608886719</ele>
        <time>2019-04-13T09:37:32Z</time>
      </trkpt>
      <trkpt lat="45.91948" lon="6.51197">
        <ele>2149.4431152344</ele>
        <time>2019-04-13T09:37:45Z</time>
      </trkpt>
      <trkpt lat="45.91942" lon="6.51204">
        <ele>2151.6369628906</ele>
        <time>2019-04-13T09:37:58Z</time>
      </trkpt>
      <trkpt lat="45.91939" lon="6.51214">
        <ele>2153.2790527344</ele>
        <time>2019-04-13T09:38:09Z</time>
      </trkpt>
      <trkpt lat="45.91932" lon="6.51218">
        <ele>2154.0471191406</ele>
        <time>2019-04-13T09:38:22Z</time>
      </trkpt>
      <trkpt lat="45.91929" lon="6.51228">
        <ele>2154.5090332031</ele>
        <time>2019-04-13T09:38:36Z</time>
      </trkpt>
      <trkpt lat="45.91921" lon="6.5123">
        <ele>2155.6931152344</ele>
        <time>2019-04-13T09:38:49Z</time>
      </trkpt>
      <trkpt lat="45.91916" lon="6.51236">
        <ele>2156.8391113281</ele>
        <time>2019-04-13T09:39:07Z</time>
      </trkpt>
      <trkpt lat="45.9191" lon="6.51243">
        <ele>2157.2780761719</ele>
        <time>2019-04-13T09:39:20Z</time>
      </trkpt>
      <trkpt lat="45.91902" lon="6.51246">
        <ele>2156.9370117188</ele>
        <time>2019-04-13T09:39:28Z</time>
      </trkpt>
      <trkpt lat="45.91901" lon="6.51256">
        <ele>2158.294921875</ele>
        <time>2019-04-13T09:39:45Z</time>
      </trkpt>
      <trkpt lat="45.91896" lon="6.51264">
        <ele>2159.6411132812</ele>
        <time>2019-04-13T09:39:59Z</time>
      </trkpt>
      <trkpt lat="45.91894" lon="6.51274">
        <ele>2160.3820800781</ele>
        <time>2019-04-13T09:40:14Z</time>
      </trkpt>
      <trkpt lat="45.91891" lon="6.51285">
        <ele>2161.9340820312</ele>
        <time>2019-04-13T09:40:30Z</time>
      </trkpt>
      <trkpt lat="45.91894" lon="6.51295">
        <ele>2163</ele>
        <time>2019-04-13T09:40:42Z</time>
      </trkpt>
      <trkpt lat="45.91892" lon="6.51306">
        <ele>2165.8430175781</ele>
        <time>2019-04-13T09:40:58Z</time>
      </trkpt>
      <trkpt lat="45.91892" lon="6.51319">
        <ele>2167.4379882812</ele>
        <time>2019-04-13T09:41:13Z</time>
      </trkpt>
      <trkpt lat="45.91889" lon="6.51329">
        <ele>2168.0969238281</ele>
        <time>2019-04-13T09:41:28Z</time>
      </trkpt>
      <trkpt lat="45.91886" lon="6.51338">
        <ele>2169.458984375</ele>
        <time>2019-04-13T09:41:41Z</time>
      </trkpt>
      <trkpt lat="45.91885" lon="6.51349">
        <ele>2169.6440429688</ele>
        <time>2019-04-13T09:41:51Z</time>
      </trkpt>
      <trkpt lat="45.91883" lon="6.51359">
        <ele>2171.1010742188</ele>
        <time>2019-04-13T09:42:07Z</time>
      </trkpt>
      <trkpt lat="45.91884" lon="6.5137">
        <ele>2171.6589355469</ele>
        <time>2019-04-13T09:42:15Z</time>
      </trkpt>
      <trkpt lat="45.91887" lon="6.51381">
        <ele>2171.1430664062</ele>
        <time>2019-04-13T09:42:26Z</time>
      </trkpt>
      <trkpt lat="45.91894" lon="6.51387">
        <ele>2174.1650390625</ele>
        <time>2019-04-13T09:42:44Z</time>
      </trkpt>
      <trkpt lat="45.91898" lon="6.51397">
        <ele>2176.8449707031</ele>
        <time>2019-04-13T09:42:54Z</time>
      </trkpt>
      <trkpt lat="45.91904" lon="6.51404">
        <ele>2180.1120605469</ele>
        <time>2019-04-13T09:43:08Z</time>
      </trkpt>
      <trkpt lat="45.9191" lon="6.51409">
        <ele>2184.4079589844</ele>
        <time>2019-04-13T09:43:22Z</time>
      </trkpt>
      <trkpt lat="45.91913" lon="6.51419">
        <ele>2188.7219238281</ele>
        <time>2019-04-13T09:43:40Z</time>
      </trkpt>
      <trkpt lat="45.91916" lon="6.51429">
        <ele>2191.9990234375</ele>
        <time>2019-04-13T09:44:00Z</time>
      </trkpt>
      <trkpt lat="45.91921" lon="6.51438">
        <ele>2194.5029296875</ele>
        <time>2019-04-13T09:44:15Z</time>
      </trkpt>
      <trkpt lat="45.91924" lon="6.51447">
        <ele>2195.6369628906</ele>
        <time>2019-04-13T09:44:33Z</time>
      </trkpt>
      <trkpt lat="45.91923" lon="6.51458">
        <ele>2198.9760742188</ele>
        <time>2019-04-13T09:45:40Z</time>
      </trkpt>
      <trkpt lat="45.91925" lon="6.51469">
        <ele>2198.708984375</ele>
        <time>2019-04-13T09:46:03Z</time>
      </trkpt>
      <trkpt lat="45.91926" lon="6.51479">
        <ele>2200.5739746094</ele>
        <time>2019-04-13T09:46:20Z</time>
      </trkpt>
      <trkpt lat="45.91931" lon="6.51488">
        <ele>2202.0778808594</ele>
        <time>2019-04-13T09:46:36Z</time>
      </trkpt>
      <trkpt lat="45.91934" lon="6.51497">
        <ele>2207.6931152344</ele>
        <time>2019-04-13T09:46:56Z</time>
      </trkpt>
      <trkpt lat="45.91936" lon="6.51508">
        <ele>2212.0939941406</ele>
        <time>2019-04-13T09:47:29Z</time>
      </trkpt>
      <trkpt lat="45.91939" lon="6.51518">
        <ele>2216.6669921875</ele>
        <time>2019-04-13T09:47:47Z</time>
      </trkpt>
      <trkpt lat="45.91945" lon="6.51525">
        <ele>2222.9040527344</ele>
        <time>2019-04-13T09:48:09Z</time>
      </trkpt>
      <trkpt lat="45.91949" lon="6.51533">
        <ele>2224.5339355469</ele>
        <time>2019-04-13T09:48:27Z</time>
      </trkpt>
      <trkpt lat="45.91945" lon="6.51542">
        <ele>2225.712890625</ele>
        <time>2019-04-13T09:48:57Z</time>
      </trkpt>
      <trkpt lat="45.91938" lon="6.51546">
        <ele>2227.9450683594</ele>
        <time>2019-04-13T09:49:56Z</time>
      </trkpt>
      <trkpt lat="45.91931" lon="6.51549">
        <ele>2230.5681152344</ele>
        <time>2019-04-13T09:51:02Z</time>
      </trkpt>
      <trkpt lat="45.91932" lon="6.5156">
        <ele>2231.9460449219</ele>
        <time>2019-04-13T09:51:22Z</time>
      </trkpt>
      <trkpt lat="45.91934" lon="6.51571">
        <ele>2233.9008789062</ele>
        <time>2019-04-13T09:51:38Z</time>
      </trkpt>
      <trkpt lat="45.91937" lon="6.5158">
        <ele>2239.2399902344</ele>
        <time>2019-04-13T09:52:03Z</time>
      </trkpt>
      <trkpt lat="45.91943" lon="6.51588">
        <ele>2243.5891113281</ele>
        <time>2019-04-13T09:52:27Z</time>
      </trkpt>
      <trkpt lat="45.91947" lon="6.51597">
        <ele>2247.0249023438</ele>
        <time>2019-04-13T09:52:51Z</time>
      </trkpt>
      <trkpt lat="45.91941" lon="6.51603">
        <ele>2246.8999023438</ele>
        <time>2019-04-13T09:53:08Z</time>
      </trkpt>
      <trkpt lat="45.91934" lon="6.51607">
        <ele>2247.1149902344</ele>
        <time>2019-04-13T09:53:23Z</time>
      </trkpt>
      <trkpt lat="45.91926" lon="6.51607">
        <ele>2248.7160644531</ele>
        <time>2019-04-13T09:53:44Z</time>
      </trkpt>
      <trkpt lat="45.91918" lon="6.51608">
        <ele>2251.3081054688</ele>
        <time>2019-04-13T09:54:01Z</time>
      </trkpt>
      <trkpt lat="45.91919" lon="6.51618">
        <ele>2257.205078125</ele>
        <time>2019-04-13T09:54:31Z</time>
      </trkpt>
      <trkpt lat="45.91924" lon="6.51626">
        <ele>2259.8310546875</ele>
        <time>2019-04-13T09:54:44Z</time>
      </trkpt>
      <trkpt lat="45.91929" lon="6.51633">
        <ele>2263.4440917969</ele>
        <time>2019-04-13T09:54:58Z</time>
      </trkpt>
      <trkpt lat="45.91923" lon="6.51641">
        <ele>2265.830078125</ele>
        <time>2019-04-13T09:55:35Z</time>
      </trkpt>
      <trkpt lat="45.91916" lon="6.51642">
        <ele>2266.1320800781</ele>
        <time>2019-04-13T09:55:54Z</time>
      </trkpt>
      <trkpt lat="45.91909" lon="6.51645">
        <ele>2265.9289550781</ele>
        <time>2019-04-13T09:56:11Z</time>
      </trkpt>
      <trkpt lat="45.91902" lon="6.51648">
        <ele>2266.6440429688</ele>
        <time>2019-04-13T09:56:27Z</time>
      </trkpt>
      <trkpt lat="45.91894" lon="6.51652">
        <ele>2268.3420410156</ele>
        <time>2019-04-13T09:56:45Z</time>
      </trkpt>
      <trkpt lat="45.91888" lon="6.51656">
        <ele>2268.1489257812</ele>
        <time>2019-04-13T09:56:55Z</time>
      </trkpt>
      <trkpt lat="45.91882" lon="6.51663">
        <ele>2268.6179199219</ele>
        <time>2019-04-13T09:57:13Z</time>
      </trkpt>
      <trkpt lat="45.91885" lon="6.51673">
        <ele>2280.0568847656</ele>
        <time>2019-04-13T09:58:00Z</time>
      </trkpt>
      <trkpt lat="45.91892" lon="6.51676">
        <ele>2283.2880859375</ele>
        <time>2019-04-13T09:58:16Z</time>
      </trkpt>
      <trkpt lat="45.91887" lon="6.51685">
        <ele>2289.3439941406</ele>
        <time>2019-04-13T09:58:57Z</time>
      </trkpt>
      <trkpt lat="45.91881" lon="6.5169">
        <ele>2290.5590820312</ele>
        <time>2019-04-13T09:59:15Z</time>
      </trkpt>
      <trkpt lat="45.91874" lon="6.51693">
        <ele>2292.37890625</ele>
        <time>2019-04-13T09:59:36Z</time>
      </trkpt>
      <trkpt lat="45.91867" lon="6.51696">
        <ele>2293.6469726562</ele>
        <time>2019-04-13T09:59:54Z</time>
      </trkpt>
      <trkpt lat="45.91873" lon="6.51703">
        <ele>2296.25390625</ele>
        <time>2019-04-13T10:00:16Z</time>
      </trkpt>
      <trkpt lat="45.9188" lon="6.51707">
        <ele>2298.5129394531</ele>
        <time>2019-04-13T10:00:32Z</time>
      </trkpt>
      <trkpt lat="45.9188" lon="6.51718">
        <ele>2302.6831054688</ele>
        <time>2019-04-13T10:01:01Z</time>
      </trkpt>
      <trkpt lat="45.91872" lon="6.5172">
        <ele>2303.5581054688</ele>
        <time>2019-04-13T10:01:12Z</time>
      </trkpt>
      <trkpt lat="45.91865" lon="6.5172">
        <ele>2305.2470703125</ele>
        <time>2019-04-13T10:01:30Z</time>
      </trkpt>
      <trkpt lat="45.91857" lon="6.51722">
        <ele>2308.6140136719</ele>
        <time>2019-04-13T10:01:53Z</time>
      </trkpt>
      <trkpt lat="45.9185" lon="6.51724">
        <ele>2310.5090332031</ele>
        <time>2019-04-13T10:02:10Z</time>
      </trkpt>
      <trkpt lat="45.91842" lon="6.51726">
        <ele>2311.3950195312</ele>
        <time>2019-04-13T10:02:21Z</time>
      </trkpt>
      <trkpt lat="45.91834" lon="6.51725">
        <ele>2313.3159179688</ele>
        <time>2019-04-13T10:02:43Z</time>
      </trkpt>
      <trkpt lat="45.91831" lon="6.51715">
        <ele>2315.087890625</ele>
        <time>2019-04-13T10:03:05Z</time>
      </trkpt>
      <trkpt lat="45.91829" lon="6.51705">
        <ele>2318.0629882812</ele>
        <time>2019-04-13T10:03:25Z</time>
      </trkpt>
      <trkpt lat="45.9183" lon="6.51695">
        <ele>2319.7719726562</ele>
        <time>2019-04-13T10:03:38Z</time>
      </trkpt>
      <trkpt lat="45.91824" lon="6.51689">
        <ele>2321.3959960938</ele>
        <time>2019-04-13T10:03:50Z</time>
      </trkpt>
      <trkpt lat="45.91817" lon="6.51685">
        <ele>2323.5009765625</ele>
        <time>2019-04-13T10:04:11Z</time>
      </trkpt>
      <trkpt lat="45.91811" lon="6.5168">
        <ele>2324.7690429688</ele>
        <time>2019-04-13T10:04:23Z</time>
      </trkpt>
      <trkpt lat="45.91803" lon="6.51676">
        <ele>2324.9060058594</ele>
        <time>2019-04-13T10:04:31Z</time>
      </trkpt>
      <trkpt lat="45.91796" lon="6.51672">
        <ele>2324.8100585938</ele>
        <time>2019-04-13T10:04:47Z</time>
      </trkpt>
      <trkpt lat="45.91789" lon="6.51667">
        <ele>2325.1850585938</ele>
        <time>2019-04-13T10:05:01Z</time>
      </trkpt>
      <trkpt lat="45.91783" lon="6.51663">
        <ele>2325.1999511719</ele>
        <time>2019-04-13T10:05:10Z</time>
      </trkpt>
      <trkpt lat="45.91777" lon="6.51655">
        <ele>2326.3659667969</ele>
        <time>2019-04-13T10:05:24Z</time>
      </trkpt>
      <trkpt lat="45.91771" lon="6.51649">
        <ele>2327.4040527344</ele>
        <time>2019-04-13T10:05:33Z</time>
      </trkpt>
      <trkpt lat="45.91763" lon="6.51645">
        <ele>2327.7739257812</ele>
        <time>2019-04-13T10:05:43Z</time>
      </trkpt>
      <trkpt lat="45.91758" lon="6.51637">
        <ele>2327.5581054688</ele>
        <time>2019-04-13T10:05:54Z</time>
      </trkpt>
      <trkpt lat="45.91753" lon="6.51628">
        <ele>2327.5270996094</ele>
        <time>2019-04-13T10:06:04Z</time>
      </trkpt>
      <trkpt lat="45.91747" lon="6.51621">
        <ele>2328.2299804688</ele>
        <time>2019-04-13T10:06:13Z</time>
      </trkpt>
      <trkpt lat="45.91739" lon="6.51619">
        <ele>2327.5358886719</ele>
        <time>2019-04-13T10:06:22Z</time>
      </trkpt>
      <trkpt lat="45.91733" lon="6.51615">
        <ele>2328.2790527344</ele>
        <time>2019-04-13T10:06:40Z</time>
      </trkpt>
      <trkpt lat="45.91725" lon="6.51615">
        <ele>2328.462890625</ele>
        <time>2019-04-13T10:06:47Z</time>
      </trkpt>
      <trkpt lat="45.91717" lon="6.51619">
        <ele>2330.3439941406</ele>
        <time>2019-04-13T10:07:05Z</time>
      </trkpt>
      <trkpt lat="45.9171" lon="6.51619">
        <ele>2330.8811035156</ele>
        <time>2019-04-13T10:07:13Z</time>
      </trkpt>
      <trkpt lat="45.91706" lon="6.51627">
        <ele>2331.4140625</ele>
        <time>2019-04-13T10:07:21Z</time>
      </trkpt>
      <trkpt lat="45.91702" lon="6.51636">
        <ele>2332.5649414062</ele>
        <time>2019-04-13T10:07:35Z</time>
      </trkpt>
      <trkpt lat="45.91695" lon="6.51641">
        <ele>2333.2839355469</ele>
        <time>2019-04-13T10:07:49Z</time>
      </trkpt>
      <trkpt lat="45.91689" lon="6.51635">
        <ele>2336.5380859375</ele>
        <time>2019-04-13T10:08:13Z</time>
      </trkpt>
      <trkpt lat="45.91684" lon="6.51627">
        <ele>2338.8020019531</ele>
        <time>2019-04-13T10:08:27Z</time>
      </trkpt>
      <trkpt lat="45.91677" lon="6.51622">
        <ele>2342.0148925781</ele>
        <time>2019-04-13T10:12:27Z</time>
      </trkpt>
      <trkpt lat="45.9167" lon="6.51619">
        <ele>2341.5139160156</ele>
        <time>2019-04-13T10:12:35Z</time>
      </trkpt>
      <trkpt lat="45.91663" lon="6.51614">
        <ele>2341.2419433594</ele>
        <time>2019-04-13T10:12:44Z</time>
      </trkpt>
      <trkpt lat="45.91656" lon="6.5161">
        <ele>2340.9069824219</ele>
        <time>2019-04-13T10:13:33Z</time>
      </trkpt>
      <trkpt lat="45.91648" lon="6.51607">
        <ele>2339.8811035156</ele>
        <time>2019-04-13T10:13:48Z</time>
      </trkpt>
      <trkpt lat="45.91641" lon="6.51603">
        <ele>2339.7880859375</ele>
        <time>2019-04-13T10:13:59Z</time>
      </trkpt>
      <trkpt lat="45.91636" lon="6.51596">
        <ele>2343.7260742188</ele>
        <time>2019-04-13T10:16:37Z</time>
      </trkpt>
      <trkpt lat="45.91629" lon="6.5159">
        <ele>2344.2680664062</ele>
        <time>2019-04-13T10:16:45Z</time>
      </trkpt>
      <trkpt lat="45.91622" lon="6.51584">
        <ele>2344.837890625</ele>
        <time>2019-04-13T10:16:54Z</time>
      </trkpt>
      <trkpt lat="45.91615" lon="6.5158">
        <ele>2345.8430175781</ele>
        <time>2019-04-13T10:17:30Z</time>
      </trkpt>
      <trkpt lat="45.91608" lon="6.51575">
        <ele>2346.7709960938</ele>
        <time>2019-04-13T10:17:39Z</time>
      </trkpt>
      <trkpt lat="45.91601" lon="6.5157">
        <ele>2346.8969726562</ele>
        <time>2019-04-13T10:17:48Z</time>
      </trkpt>
      <trkpt lat="45.91594" lon="6.51567">
        <ele>2347.5739746094</ele>
        <time>2019-04-13T10:18:02Z</time>
      </trkpt>
      <trkpt lat="45.91587" lon="6.51562">
        <ele>2347.6789550781</ele>
        <time>2019-04-13T10:18:13Z</time>
      </trkpt>
      <trkpt lat="45.91584" lon="6.51552">
        <ele>2349.3588867188</ele>
        <time>2019-04-13T10:18:26Z</time>
      </trkpt>
      <trkpt lat="45.91578" lon="6.51544">
        <ele>2349.6469726562</ele>
        <time>2019-04-13T10:18:36Z</time>
      </trkpt>
      <trkpt lat="45.91578" lon="6.51533">
        <ele>2351.7670898438</ele>
        <time>2019-04-13T10:18:49Z</time>
      </trkpt>
      <trkpt lat="45.91576" lon="6.51523">
        <ele>2352.8630371094</ele>
        <time>2019-04-13T10:19:01Z</time>
      </trkpt>
      <trkpt lat="45.91575" lon="6.51513">
        <ele>2355.6169433594</ele>
        <time>2019-04-13T10:19:19Z</time>
      </trkpt>
      <trkpt lat="45.91578" lon="6.51503">
        <ele>2357.5510253906</ele>
        <time>2019-04-13T10:19:33Z</time>
      </trkpt>
      <trkpt lat="45.91579" lon="6.51492">
        <ele>2360.0209960938</ele>
        <time>2019-04-13T10:19:48Z</time>
      </trkpt>
      <trkpt lat="45.91576" lon="6.51483">
        <ele>2362.1379394531</ele>
        <time>2019-04-13T10:20:06Z</time>
      </trkpt>
      <trkpt lat="45.91571" lon="6.51475">
        <ele>2363.4719238281</ele>
        <time>2019-04-13T10:20:20Z</time>
      </trkpt>
      <trkpt lat="45.9157" lon="6.51464">
        <ele>2365.375</ele>
        <time>2019-04-13T10:20:37Z</time>
      </trkpt>
      <trkpt lat="45.91569" lon="6.51453">
        <ele>2365.9851074219</ele>
        <time>2019-04-13T10:20:52Z</time>
      </trkpt>
      <trkpt lat="45.9157" lon="6.51443">
        <ele>2367.462890625</ele>
        <time>2019-04-13T10:21:10Z</time>
      </trkpt>
      <trkpt lat="45.91573" lon="6.51433">
        <ele>2369.0080566406</ele>
        <time>2019-04-13T10:21:25Z</time>
      </trkpt>
      <trkpt lat="45.91571" lon="6.51422">
        <ele>2371.5769042969</ele>
        <time>2019-04-13T10:21:52Z</time>
      </trkpt>
      <trkpt lat="45.91573" lon="6.51412">
        <ele>2372.2370605469</ele>
        <time>2019-04-13T10:22:09Z</time>
      </trkpt>
      <trkpt lat="45.9158" lon="6.51412">
        <ele>2394.2019042969</ele>
        <time>2019-04-13T11:10:06Z</time>
      </trkpt>
      <trkpt lat="45.91588" lon="6.51416">
        <ele>2394.169921875</ele>
        <time>2019-04-13T11:10:11Z</time>
      </trkpt>
      <trkpt lat="45.91595" lon="6.51418">
        <ele>2394.2600097656</ele>
        <time>2019-04-13T11:10:17Z</time>
      </trkpt>
      <trkpt lat="45.91603" lon="6.51433">
        <ele>2393.6120605469</ele>
        <time>2019-04-13T11:10:24Z</time>
      </trkpt>
      <trkpt lat="45.91603" lon="6.51444">
        <ele>2392.5859375</ele>
        <time>2019-04-13T11:10:30Z</time>
      </trkpt>
      <trkpt lat="45.91612" lon="6.5146">
        <ele>2389.8491210938</ele>
        <time>2019-04-13T11:10:36Z</time>
      </trkpt>
      <trkpt lat="45.91628" lon="6.51466">
        <ele>2381.1240234375</ele>
        <time>2019-04-13T11:10:41Z</time>
      </trkpt>
      <trkpt lat="45.91642" lon="6.51475">
        <ele>2377.0930175781</ele>
        <time>2019-04-13T11:10:49Z</time>
      </trkpt>
      <trkpt lat="45.91646" lon="6.51465">
        <ele>2368.3920898438</ele>
        <time>2019-04-13T11:11:07Z</time>
      </trkpt>
      <trkpt lat="45.9165" lon="6.51454">
        <ele>2364.4418945312</ele>
        <time>2019-04-13T11:11:13Z</time>
      </trkpt>
      <trkpt lat="45.91653" lon="6.51444">
        <ele>2361.5100097656</ele>
        <time>2019-04-13T11:11:18Z</time>
      </trkpt>
      <trkpt lat="45.9166" lon="6.51435">
        <ele>2356.4890136719</ele>
        <time>2019-04-13T11:11:53Z</time>
      </trkpt>
      <trkpt lat="45.91678" lon="6.51437">
        <ele>2344.9289550781</ele>
        <time>2019-04-13T11:12:00Z</time>
      </trkpt>
      <trkpt lat="45.91694" lon="6.51443">
        <ele>2340.1579589844</ele>
        <time>2019-04-13T11:12:04Z</time>
      </trkpt>
      <trkpt lat="45.91712" lon="6.51453">
        <ele>2335.5581054688</ele>
        <time>2019-04-13T11:12:09Z</time>
      </trkpt>
      <trkpt lat="45.91748" lon="6.51483">
        <ele>2327.4150390625</ele>
        <time>2019-04-13T11:12:15Z</time>
      </trkpt>
      <trkpt lat="45.91765" lon="6.51486">
        <ele>2305.3640136719</ele>
        <time>2019-04-13T11:12:22Z</time>
      </trkpt>
      <trkpt lat="45.91782" lon="6.51491">
        <ele>2298.8889160156</ele>
        <time>2019-04-13T11:12:28Z</time>
      </trkpt>
      <trkpt lat="45.91792" lon="6.51489">
        <ele>2296.7670898438</ele>
        <time>2019-04-13T11:12:45Z</time>
      </trkpt>
      <trkpt lat="45.9179" lon="6.51473">
        <ele>2294.6608886719</ele>
        <time>2019-04-13T11:13:01Z</time>
      </trkpt>
      <trkpt lat="45.91773" lon="6.5146">
        <ele>2287.2639160156</ele>
        <time>2019-04-13T11:13:07Z</time>
      </trkpt>
      <trkpt lat="45.91767" lon="6.51453">
        <ele>2283.5090332031</ele>
        <time>2019-04-13T11:13:09Z</time>
      </trkpt>
      <trkpt lat="45.91761" lon="6.51415">
        <ele>2274.9851074219</ele>
        <time>2019-04-13T11:13:15Z</time>
      </trkpt>
      <trkpt lat="45.91777" lon="6.51397">
        <ele>2284.7028808594</ele>
        <time>2019-04-13T11:16:31Z</time>
      </trkpt>
      <trkpt lat="45.91791" lon="6.51408">
        <ele>2285.4880371094</ele>
        <time>2019-04-13T11:16:36Z</time>
      </trkpt>
      <trkpt lat="45.91821" lon="6.51408">
        <ele>2290.6550292969</ele>
        <time>2019-04-13T11:16:41Z</time>
      </trkpt>
      <trkpt lat="45.91847" lon="6.51395">
        <ele>2292.9008789062</ele>
        <time>2019-04-13T11:16:47Z</time>
      </trkpt>
      <trkpt lat="45.91864" lon="6.51418">
        <ele>2291.2360839844</ele>
        <time>2019-04-13T11:16:53Z</time>
      </trkpt>
      <trkpt lat="45.91878" lon="6.51426">
        <ele>2290.6608886719</ele>
        <time>2019-04-13T11:16:59Z</time>
      </trkpt>
      <trkpt lat="45.91886" lon="6.51424">
        <ele>2289.8229980469</ele>
        <time>2019-04-13T11:17:04Z</time>
      </trkpt>
      <trkpt lat="45.91903" lon="6.5143">
        <ele>2273.2839355469</ele>
        <time>2019-04-13T11:17:15Z</time>
      </trkpt>
      <trkpt lat="45.91911" lon="6.51439">
        <ele>2272.1240234375</ele>
        <time>2019-04-13T11:17:18Z</time>
      </trkpt>
      <trkpt lat="45.9192" lon="6.51446">
        <ele>2268.9770507812</ele>
        <time>2019-04-13T11:17:23Z</time>
      </trkpt>
      <trkpt lat="45.9194" lon="6.51466">
        <ele>2262.2648925781</ele>
        <time>2019-04-13T11:17:31Z</time>
      </trkpt>
      <trkpt lat="45.91947" lon="6.51474">
        <ele>2258.1101074219</ele>
        <time>2019-04-13T11:17:34Z</time>
      </trkpt>
      <trkpt lat="45.91968" lon="6.51493">
        <ele>2246.0649414062</ele>
        <time>2019-04-13T11:17:41Z</time>
      </trkpt>
      <trkpt lat="45.91999" lon="6.51491">
        <ele>2239.7810058594</ele>
        <time>2019-04-13T11:17:48Z</time>
      </trkpt>
      <trkpt lat="45.92037" lon="6.51472">
        <ele>2234.4750976562</ele>
        <time>2019-04-13T11:17:54Z</time>
      </trkpt>
      <trkpt lat="45.9205" lon="6.5146">
        <ele>2232.6188964844</ele>
        <time>2019-04-13T11:18:02Z</time>
      </trkpt>
      <trkpt lat="45.92061" lon="6.51444">
        <ele>2231.5690917969</ele>
        <time>2019-04-13T11:18:12Z</time>
      </trkpt>
      <trkpt lat="45.92065" lon="6.5142">
        <ele>2228.2319335938</ele>
        <time>2019-04-13T11:18:24Z</time>
      </trkpt>
      <trkpt lat="45.92074" lon="6.51408">
        <ele>2225.7160644531</ele>
        <time>2019-04-13T11:18:34Z</time>
      </trkpt>
      <trkpt lat="45.92086" lon="6.51396">
        <ele>2224.4951171875</ele>
        <time>2019-04-13T11:18:39Z</time>
      </trkpt>
      <trkpt lat="45.92098" lon="6.51377">
        <ele>2223.08203125</ele>
        <time>2019-04-13T11:18:45Z</time>
      </trkpt>
      <trkpt lat="45.92109" lon="6.51356">
        <ele>2219.5380859375</ele>
        <time>2019-04-13T11:18:52Z</time>
      </trkpt>
      <trkpt lat="45.92101" lon="6.51345">
        <ele>2203.1850585938</ele>
        <time>2019-04-13T11:22:47Z</time>
      </trkpt>
      <trkpt lat="45.9211" lon="6.51341">
        <ele>2198.7060546875</ele>
        <time>2019-04-13T11:26:31Z</time>
      </trkpt>
      <trkpt lat="45.92117" lon="6.51347">
        <ele>2198.416015625</ele>
        <time>2019-04-13T11:26:36Z</time>
      </trkpt>
      <trkpt lat="45.92124" lon="6.51351">
        <ele>2198.3759765625</ele>
        <time>2019-04-13T11:26:41Z</time>
      </trkpt>
      <trkpt lat="45.92138" lon="6.51356">
        <ele>2198.0668945312</ele>
        <time>2019-04-13T11:26:46Z</time>
      </trkpt>
      <trkpt lat="45.92147" lon="6.51352">
        <ele>2197.9580078125</ele>
        <time>2019-04-13T11:26:49Z</time>
      </trkpt>
      <trkpt lat="45.92167" lon="6.51351">
        <ele>2197.2250976562</ele>
        <time>2019-04-13T11:26:55Z</time>
      </trkpt>
      <trkpt lat="45.92163" lon="6.5134">
        <ele>2194.3779296875</ele>
        <time>2019-04-13T11:27:23Z</time>
      </trkpt>
      <trkpt lat="45.92163" lon="6.51323">
        <ele>2188.330078125</ele>
        <time>2019-04-13T11:27:28Z</time>
      </trkpt>
      <trkpt lat="45.92161" lon="6.51308">
        <ele>2185.5349121094</ele>
        <time>2019-04-13T11:27:35Z</time>
      </trkpt>
      <trkpt lat="45.92158" lon="6.51296">
        <ele>2176.5471191406</ele>
        <time>2019-04-13T11:27:38Z</time>
      </trkpt>
      <trkpt lat="45.92171" lon="6.51284">
        <ele>2166.4340820312</ele>
        <time>2019-04-13T11:27:44Z</time>
      </trkpt>
      <trkpt lat="45.92167" lon="6.51274">
        <ele>2160.4489746094</ele>
        <time>2019-04-13T11:27:46Z</time>
      </trkpt>
      <trkpt lat="45.92165" lon="6.51255">
        <ele>2153.0148925781</ele>
        <time>2019-04-13T11:27:52Z</time>
      </trkpt>
      <trkpt lat="45.92162" lon="6.51246">
        <ele>2145.1740722656</ele>
        <time>2019-04-13T11:27:54Z</time>
      </trkpt>
      <trkpt lat="45.9217" lon="6.5123">
        <ele>2140.791015625</ele>
        <time>2019-04-13T11:27:59Z</time>
      </trkpt>
      <trkpt lat="45.9217" lon="6.5122">
        <ele>2132.6760253906</ele>
        <time>2019-04-13T11:28:02Z</time>
      </trkpt>
      <trkpt lat="45.92178" lon="6.51199">
        <ele>2122.6398925781</ele>
        <time>2019-04-13T11:28:07Z</time>
      </trkpt>
      <trkpt lat="45.92182" lon="6.51155">
        <ele>2105.376953125</ele>
        <time>2019-04-13T11:28:13Z</time>
      </trkpt>
      <trkpt lat="45.92193" lon="6.51149">
        <ele>2100.5639648438</ele>
        <time>2019-04-13T11:28:15Z</time>
      </trkpt>
      <trkpt lat="45.92209" lon="6.51138">
        <ele>2092.9990234375</ele>
        <time>2019-04-13T11:28:19Z</time>
      </trkpt>
      <trkpt lat="45.92215" lon="6.51103">
        <ele>2078.1530761719</ele>
        <time>2019-04-13T11:28:25Z</time>
      </trkpt>
      <trkpt lat="45.92224" lon="6.511">
        <ele>2073.5769042969</ele>
        <time>2019-04-13T11:29:44Z</time>
      </trkpt>
      <trkpt lat="45.92254" lon="6.51097">
        <ele>2067.8940429688</ele>
        <time>2019-04-13T11:29:50Z</time>
      </trkpt>
      <trkpt lat="45.92261" lon="6.51082">
        <ele>2066.1530761719</ele>
        <time>2019-04-13T11:29:52Z</time>
      </trkpt>
      <trkpt lat="45.92275" lon="6.51078">
        <ele>2062.7309570312</ele>
        <time>2019-04-13T11:29:57Z</time>
      </trkpt>
      <trkpt lat="45.92273" lon="6.51065">
        <ele>2058.498046875</ele>
        <time>2019-04-13T11:30:00Z</time>
      </trkpt>
      <trkpt lat="45.92274" lon="6.51047">
        <ele>2048.8020019531</ele>
        <time>2019-04-13T11:30:07Z</time>
      </trkpt>
      <trkpt lat="45.92284" lon="6.51038">
        <ele>2039.4360351562</ele>
        <time>2019-04-13T11:30:12Z</time>
      </trkpt>
      <trkpt lat="45.92292" lon="6.51044">
        <ele>2036.6960449219</ele>
        <time>2019-04-13T11:30:15Z</time>
      </trkpt>
      <trkpt lat="45.92285" lon="6.51023">
        <ele>2027.5789794922</ele>
        <time>2019-04-13T11:30:19Z</time>
      </trkpt>
      <trkpt lat="45.92303" lon="6.51013">
        <ele>2017.83203125</ele>
        <time>2019-04-13T11:30:24Z</time>
      </trkpt>
      <trkpt lat="45.92312" lon="6.5099">
        <ele>2002.9119873047</ele>
        <time>2019-04-13T11:30:29Z</time>
      </trkpt>
      <trkpt lat="45.92317" lon="6.50976">
        <ele>1998.6770019531</ele>
        <time>2019-04-13T11:30:32Z</time>
      </trkpt>
      <trkpt lat="45.92319" lon="6.5096">
        <ele>1993.3139648438</ele>
        <time>2019-04-13T11:30:43Z</time>
      </trkpt>
      <trkpt lat="45.9233" lon="6.50937">
        <ele>1985.5350341797</ele>
        <time>2019-04-13T11:30:48Z</time>
      </trkpt>
      <trkpt lat="45.92329" lon="6.5092">
        <ele>1980.2180175781</ele>
        <time>2019-04-13T11:30:53Z</time>
      </trkpt>
      <trkpt lat="45.92344" lon="6.50888">
        <ele>1971.1300048828</ele>
        <time>2019-04-13T11:30:58Z</time>
      </trkpt>
      <trkpt lat="45.92352" lon="6.50854">
        <ele>1956.3229980469</ele>
        <time>2019-04-13T11:31:04Z</time>
      </trkpt>
      <trkpt lat="45.92365" lon="6.50847">
        <ele>1951.9139404297</ele>
        <time>2019-04-13T11:32:07Z</time>
      </trkpt>
      <trkpt lat="45.92383" lon="6.50846">
        <ele>1951.0360107422</ele>
        <time>2019-04-13T11:32:14Z</time>
      </trkpt>
      <trkpt lat="45.92401" lon="6.50849">
        <ele>1948.7559814453</ele>
        <time>2019-04-13T11:32:19Z</time>
      </trkpt>
      <trkpt lat="45.92412" lon="6.50839">
        <ele>1941.9689941406</ele>
        <time>2019-04-13T11:32:25Z</time>
      </trkpt>
      <trkpt lat="45.92431" lon="6.50825">
        <ele>1933.3060302734</ele>
        <time>2019-04-13T11:32:30Z</time>
      </trkpt>
      <trkpt lat="45.92427" lon="6.50797">
        <ele>1919.8699951172</ele>
        <time>2019-04-13T11:32:35Z</time>
      </trkpt>
      <trkpt lat="45.92411" lon="6.50772">
        <ele>1907.8409423828</ele>
        <time>2019-04-13T11:32:42Z</time>
      </trkpt>
      <trkpt lat="45.92411" lon="6.50757">
        <ele>1903.0629882812</ele>
        <time>2019-04-13T11:32:46Z</time>
      </trkpt>
      <trkpt lat="45.9241" lon="6.50717">
        <ele>1888.70703125</ele>
        <time>2019-04-13T11:32:52Z</time>
      </trkpt>
      <trkpt lat="45.92419" lon="6.5067">
        <ele>1873.4489746094</ele>
        <time>2019-04-13T11:32:58Z</time>
      </trkpt>
      <trkpt lat="45.92434" lon="6.50647">
        <ele>1861.8380126953</ele>
        <time>2019-04-13T11:33:02Z</time>
      </trkpt>
      <trkpt lat="45.92444" lon="6.50612">
        <ele>1849.5980224609</ele>
        <time>2019-04-13T11:33:08Z</time>
      </trkpt>
      <trkpt lat="45.92456" lon="6.50592">
        <ele>1838.9350585938</ele>
        <time>2019-04-13T11:33:15Z</time>
      </trkpt>
      <trkpt lat="45.92465" lon="6.50576">
        <ele>1833.3299560547</ele>
        <time>2019-04-13T11:37:58Z</time>
      </trkpt>
      <trkpt lat="45.9247" lon="6.50549">
        <ele>1831.3110351562</ele>
        <time>2019-04-13T11:38:03Z</time>
      </trkpt>
      <trkpt lat="45.9247" lon="6.50513">
        <ele>1828.8389892578</ele>
        <time>2019-04-13T11:38:09Z</time>
      </trkpt>
      <trkpt lat="45.92473" lon="6.50475">
        <ele>1815.6259765625</ele>
        <time>2019-04-13T11:38:15Z</time>
      </trkpt>
      <trkpt lat="45.92459" lon="6.50435">
        <ele>1798.2889404297</ele>
        <time>2019-04-13T11:38:21Z</time>
      </trkpt>
      <trkpt lat="45.92452" lon="6.50408">
        <ele>1790.125</ele>
        <time>2019-04-13T11:38:27Z</time>
      </trkpt>
      <trkpt lat="45.92469" lon="6.50403">
        <ele>1785.8969726562</ele>
        <time>2019-04-13T11:38:32Z</time>
      </trkpt>
      <trkpt lat="45.925" lon="6.50398">
        <ele>1779.4410400391</ele>
        <time>2019-04-13T11:38:38Z</time>
      </trkpt>
      <trkpt lat="45.92512" lon="6.50363">
        <ele>1771.41796875</ele>
        <time>2019-04-13T11:38:45Z</time>
      </trkpt>
      <trkpt lat="45.92518" lon="6.50342">
        <ele>1766.001953125</ele>
        <time>2019-04-13T11:38:51Z</time>
      </trkpt>
      <trkpt lat="45.92522" lon="6.50318">
        <ele>1756.7049560547</ele>
        <time>2019-04-13T11:38:56Z</time>
      </trkpt>
      <trkpt lat="45.92527" lon="6.5028">
        <ele>1738.5040283203</ele>
        <time>2019-04-13T11:40:20Z</time>
      </trkpt>
      <trkpt lat="45.92529" lon="6.5025">
        <ele>1730.2340087891</ele>
        <time>2019-04-13T11:40:26Z</time>
      </trkpt>
      <trkpt lat="45.92529" lon="6.5023">
        <ele>1719.6209716797</ele>
        <time>2019-04-13T11:40:31Z</time>
      </trkpt>
      <trkpt lat="45.92539" lon="6.5021">
        <ele>1712.3360595703</ele>
        <time>2019-04-13T11:40:36Z</time>
      </trkpt>
      <trkpt lat="45.92542" lon="6.50191">
        <ele>1710.3249511719</ele>
        <time>2019-04-13T11:40:41Z</time>
      </trkpt>
      <trkpt lat="45.92552" lon="6.50186">
        <ele>1704.9210205078</ele>
        <time>2019-04-13T11:40:43Z</time>
      </trkpt>
      <trkpt lat="45.92555" lon="6.50176">
        <ele>1698.5550537109</ele>
        <time>2019-04-13T11:40:50Z</time>
      </trkpt>
      <trkpt lat="45.92555" lon="6.5016">
        <ele>1686.9560546875</ele>
        <time>2019-04-13T11:40:56Z</time>
      </trkpt>
      <trkpt lat="45.92549" lon="6.5015">
        <ele>1681.7449951172</ele>
        <time>2019-04-13T11:41:01Z</time>
      </trkpt>
      <trkpt lat="45.92546" lon="6.50136">
        <ele>1671.1219482422</ele>
        <time>2019-04-13T11:41:23Z</time>
      </trkpt>
      <trkpt lat="45.9256" lon="6.50124">
        <ele>1661.0889892578</ele>
        <time>2019-04-13T11:41:30Z</time>
      </trkpt>
      <trkpt lat="45.92571" lon="6.5011">
        <ele>1655.1479492188</ele>
        <time>2019-04-13T11:41:36Z</time>
      </trkpt>
      <trkpt lat="45.92572" lon="6.50083">
        <ele>1644.2939453125</ele>
        <time>2019-04-13T11:41:43Z</time>
      </trkpt>
      <trkpt lat="45.9258" lon="6.50077">
        <ele>1638.3029785156</ele>
        <time>2019-04-13T11:41:45Z</time>
      </trkpt>
      <trkpt lat="45.92594" lon="6.50072">
        <ele>1630.9599609375</ele>
        <time>2019-04-13T11:41:51Z</time>
      </trkpt>
      <trkpt lat="45.92591" lon="6.50063">
        <ele>1627.6860351562</ele>
        <time>2019-04-13T11:42:16Z</time>
      </trkpt>
      <trkpt lat="45.92587" lon="6.5005">
        <ele>1614.1080322266</ele>
        <time>2019-04-13T11:42:29Z</time>
      </trkpt>
      <trkpt lat="45.92581" lon="6.50009">
        <ele>1601.4809570312</ele>
        <time>2019-04-13T11:42:35Z</time>
      </trkpt>
      <trkpt lat="45.92572" lon="6.49974">
        <ele>1597.6669921875</ele>
        <time>2019-04-13T11:42:41Z</time>
      </trkpt>
      <trkpt lat="45.92567" lon="6.49936">
        <ele>1592.7509765625</ele>
        <time>2019-04-13T11:42:47Z</time>
      </trkpt>
      <trkpt lat="45.92561" lon="6.49896">
        <ele>1591.9709472656</ele>
        <time>2019-04-13T11:42:53Z</time>
      </trkpt>
      <trkpt lat="45.92562" lon="6.4985">
        <ele>1591.5090332031</ele>
        <time>2019-04-13T11:42:59Z</time>
      </trkpt>
      <trkpt lat="45.92562" lon="6.49835">
        <ele>1590.2569580078</ele>
        <time>2019-04-13T11:43:02Z</time>
      </trkpt>
      <trkpt lat="45.92564" lon="6.49811">
        <ele>1588.9780273438</ele>
        <time>2019-04-13T11:43:09Z</time>
      </trkpt>
      <trkpt lat="45.92566" lon="6.49823">
        <ele>1590.7550048828</ele>
        <time>2019-04-13T11:44:49Z</time>
      </trkpt>
      <trkpt lat="45.92564" lon="6.49835">
        <ele>1590.4460449219</ele>
        <time>2019-04-13T11:44:52Z</time>
      </trkpt>
      <trkpt lat="45.92565" lon="6.49845">
        <ele>1589.8160400391</ele>
        <time>2019-04-13T11:44:57Z</time>
      </trkpt>
      <trkpt lat="45.92571" lon="6.49853">
        <ele>1589.1330566406</ele>
        <time>2019-04-13T11:45:03Z</time>
      </trkpt>
      <trkpt lat="45.92589" lon="6.49845">
        <ele>1580.4139404297</ele>
        <time>2019-04-13T11:45:10Z</time>
      </trkpt>
      <trkpt lat="45.9261" lon="6.49844">
        <ele>1576.9069824219</ele>
        <time>2019-04-13T11:45:15Z</time>
      </trkpt>
      <trkpt lat="45.92614" lon="6.49869">
        <ele>1573.8249511719</ele>
        <time>2019-04-13T11:45:20Z</time>
      </trkpt>
      <trkpt lat="45.92624" lon="6.49888">
        <ele>1572.2330322266</ele>
        <time>2019-04-13T11:45:28Z</time>
      </trkpt>
      <trkpt lat="45.92652" lon="6.49874">
        <ele>1557.7950439453</ele>
        <time>2019-04-13T11:45:34Z</time>
      </trkpt>
      <trkpt lat="45.92659" lon="6.49885">
        <ele>1549.5810546875</ele>
        <time>2019-04-13T11:45:40Z</time>
      </trkpt>
      <trkpt lat="45.92666" lon="6.49879">
        <ele>1548.4310302734</ele>
        <time>2019-04-13T11:45:44Z</time>
      </trkpt>
      <trkpt lat="45.9268" lon="6.4988">
        <ele>1538.7860107422</ele>
        <time>2019-04-13T11:46:18Z</time>
      </trkpt>
      <trkpt lat="45.92684" lon="6.4987">
        <ele>1531.8780517578</ele>
        <time>2019-04-13T11:46:20Z</time>
      </trkpt>
      <trkpt lat="45.92707" lon="6.49855">
        <ele>1522.1760253906</ele>
        <time>2019-04-13T11:46:27Z</time>
      </trkpt>
      <trkpt lat="45.92724" lon="6.49831">
        <ele>1513.70703125</ele>
        <time>2019-04-13T11:46:33Z</time>
      </trkpt>
      <trkpt lat="45.92738" lon="6.49813">
        <ele>1503.8420410156</ele>
        <time>2019-04-13T11:46:38Z</time>
      </trkpt>
      <trkpt lat="45.9275" lon="6.498">
        <ele>1494.2110595703</ele>
        <time>2019-04-13T11:46:44Z</time>
      </trkpt>
      <trkpt lat="45.92764" lon="6.49776">
        <ele>1484.1190185547</ele>
        <time>2019-04-13T11:46:49Z</time>
      </trkpt>
      <trkpt lat="45.92792" lon="6.49752">
        <ele>1470.9370117188</ele>
        <time>2019-04-13T11:46:55Z</time>
      </trkpt>
      <trkpt lat="45.92815" lon="6.49724">
        <ele>1465.4429931641</ele>
        <time>2019-04-13T11:47:00Z</time>
      </trkpt>
      <trkpt lat="45.92842" lon="6.49691">
        <ele>1462.54296875</ele>
        <time>2019-04-13T11:47:06Z</time>
      </trkpt>
      <trkpt lat="45.92854" lon="6.49668">
        <ele>1460.2679443359</ele>
        <time>2019-04-13T11:47:20Z</time>
      </trkpt>
      <trkpt lat="45.92858" lon="6.49651">
        <ele>1460.2209472656</ele>
        <time>2019-04-13T11:47:46Z</time>
      </trkpt>
      <trkpt lat="45.92854" lon="6.49639">
        <ele>1458.5439453125</ele>
        <time>2019-04-13T11:48:15Z</time>
      </trkpt>
      <trkpt lat="45.92862" lon="6.49621">
        <ele>1460.6519775391</ele>
        <time>2019-04-13T11:49:41Z</time>
      </trkpt>
      <trkpt lat="45.92865" lon="6.4961">
        <ele>1462.4720458984</ele>
        <time>2019-04-13T11:49:59Z</time>
      </trkpt>
      <trkpt lat="45.92862" lon="6.49597">
        <ele>1468.2180175781</ele>
        <time>2019-04-13T11:50:29Z</time>
      </trkpt>
      <trkpt lat="45.92862" lon="6.49586">
        <ele>1470.8740234375</ele>
        <time>2019-04-13T11:50:44Z</time>
      </trkpt>
      <trkpt lat="45.92863" lon="6.49576">
        <ele>1473.1860351562</ele>
        <time>2019-04-13T11:51:00Z</time>
      </trkpt>
      <trkpt lat="45.92867" lon="6.49565">
        <ele>1475.916015625</ele>
        <time>2019-04-13T11:51:16Z</time>
      </trkpt>
      <trkpt lat="45.92862" lon="6.49556">
        <ele>1477.6199951172</ele>
        <time>2019-04-13T11:51:28Z</time>
      </trkpt>
      <trkpt lat="45.92851" lon="6.49542">
        <ele>1477.5649414062</ele>
        <time>2019-04-13T11:51:49Z</time>
      </trkpt>
      <trkpt lat="45.92845" lon="6.49535">
        <ele>1478.91796875</ele>
        <time>2019-04-13T11:52:04Z</time>
      </trkpt>
      <trkpt lat="45.92839" lon="6.49529">
        <ele>1478.8879394531</ele>
        <time>2019-04-13T11:52:16Z</time>
      </trkpt>
      <trkpt lat="45.92832" lon="6.49523">
        <ele>1478.9210205078</ele>
        <time>2019-04-13T11:52:29Z</time>
      </trkpt>
      <trkpt lat="45.92826" lon="6.49519">
        <ele>1478.9620361328</ele>
        <time>2019-04-13T11:52:41Z</time>
      </trkpt>
      <trkpt lat="45.92819" lon="6.49513">
        <ele>1478.8530273438</ele>
        <time>2019-04-13T11:52:52Z</time>
      </trkpt>
      <trkpt lat="45.92812" lon="6.49511">
        <ele>1480.1120605469</ele>
        <time>2019-04-13T11:53:08Z</time>
      </trkpt>
      <trkpt lat="45.92805" lon="6.49506">
        <ele>1480.3630371094</ele>
        <time>2019-04-13T11:53:19Z</time>
      </trkpt>
      <trkpt lat="45.92798" lon="6.49503">
        <ele>1480.3859863281</ele>
        <time>2019-04-13T11:53:33Z</time>
      </trkpt>
      <trkpt lat="45.9279" lon="6.49501">
        <ele>1483.4520263672</ele>
        <time>2019-04-13T11:53:58Z</time>
      </trkpt>
      <trkpt lat="45.92784" lon="6.49496">
        <ele>1483.4379882812</ele>
        <time>2019-04-13T11:54:08Z</time>
      </trkpt>
      <trkpt lat="45.92777" lon="6.49492">
        <ele>1483.1770019531</ele>
        <time>2019-04-13T11:54:19Z</time>
      </trkpt>
      <trkpt lat="45.92771" lon="6.49487">
        <ele>1484.3079833984</ele>
        <time>2019-04-13T11:54:37Z</time>
      </trkpt>
      <trkpt lat="45.92763" lon="6.49483">
        <ele>1485.0729980469</ele>
        <time>2019-04-13T11:54:48Z</time>
      </trkpt>
      <trkpt lat="45.92759" lon="6.49474">
        <ele>1485.9639892578</ele>
        <time>2019-04-13T11:55:00Z</time>
      </trkpt>
      <trkpt lat="45.92754" lon="6.49466">
        <ele>1487.5209960938</ele>
        <time>2019-04-13T11:55:15Z</time>
      </trkpt>
      <trkpt lat="45.9275" lon="6.49455">
        <ele>1490.8330078125</ele>
        <time>2019-04-13T11:55:46Z</time>
      </trkpt>
      <trkpt lat="45.92747" lon="6.49445">
        <ele>1491.833984375</ele>
        <time>2019-04-13T11:55:53Z</time>
      </trkpt>
      <trkpt lat="45.92743" lon="6.49433">
        <ele>1492.9279785156</ele>
        <time>2019-04-13T11:55:58Z</time>
      </trkpt>
      <trkpt lat="45.9274" lon="6.49423">
        <ele>1493.8399658203</ele>
        <time>2019-04-13T11:56:03Z</time>
      </trkpt>
      <trkpt lat="45.9274" lon="6.49412">
        <ele>1495.3950195312</ele>
        <time>2019-04-13T11:56:11Z</time>
      </trkpt>
      <trkpt lat="45.92738" lon="6.494">
        <ele>1496.4270019531</ele>
        <time>2019-04-13T11:56:16Z</time>
      </trkpt>
      <trkpt lat="45.92734" lon="6.4939">
        <ele>1497.2370605469</ele>
        <time>2019-04-13T11:56:21Z</time>
      </trkpt>
      <trkpt lat="45.92731" lon="6.49379">
        <ele>1497.7760009766</ele>
        <time>2019-04-13T11:56:27Z</time>
      </trkpt>
      <trkpt lat="45.92722" lon="6.49356">
        <ele>1497.2010498047</ele>
        <time>2019-04-13T11:56:33Z</time>
      </trkpt>
      <trkpt lat="45.9271" lon="6.49322">
        <ele>1491.1350097656</ele>
        <time>2019-04-13T11:56:39Z</time>
      </trkpt>
      <trkpt lat="45.92697" lon="6.49305">
        <ele>1489.0269775391</ele>
        <time>2019-04-13T11:56:44Z</time>
      </trkpt>
      <trkpt lat="45.92682" lon="6.49289">
        <ele>1486.54296875</ele>
        <time>2019-04-13T11:56:49Z</time>
      </trkpt>
      <trkpt lat="45.92664" lon="6.49282">
        <ele>1485.9110107422</ele>
        <time>2019-04-13T11:56:58Z</time>
      </trkpt>
      <trkpt lat="45.92657" lon="6.49277">
        <ele>1484.9470214844</ele>
        <time>2019-04-13T11:57:08Z</time>
      </trkpt>
      <trkpt lat="45.9265" lon="6.4927">
        <ele>1484.9069824219</ele>
        <time>2019-04-13T11:57:17Z</time>
      </trkpt>
      <trkpt lat="45.92643" lon="6.49267">
        <ele>1484.6490478516</ele>
        <time>2019-04-13T11:57:23Z</time>
      </trkpt>
      <trkpt lat="45.92637" lon="6.4926">
        <ele>1485.1020507812</ele>
        <time>2019-04-13T11:57:35Z</time>
      </trkpt>
      <trkpt lat="45.92623" lon="6.4925">
        <ele>1485.4210205078</ele>
        <time>2019-04-13T11:57:47Z</time>
      </trkpt>
      <trkpt lat="45.92617" lon="6.49244">
        <ele>1484.6870117188</ele>
        <time>2019-04-13T11:57:57Z</time>
      </trkpt>
      <trkpt lat="45.92609" lon="6.49239">
        <ele>1484.5670166016</ele>
        <time>2019-04-13T11:58:11Z</time>
      </trkpt>
      <trkpt lat="45.92603" lon="6.49233">
        <ele>1487.2099609375</ele>
        <time>2019-04-13T11:58:29Z</time>
      </trkpt>
      <trkpt lat="45.92595" lon="6.49233">
        <ele>1489.3430175781</ele>
        <time>2019-04-13T11:58:47Z</time>
      </trkpt>
      <trkpt lat="45.92589" lon="6.49227">
        <ele>1490.9859619141</ele>
        <time>2019-04-13T11:58:58Z</time>
      </trkpt>
      <trkpt lat="45.92581" lon="6.49225">
        <ele>1493.0109863281</ele>
        <time>2019-04-13T11:59:09Z</time>
      </trkpt>
      <trkpt lat="45.92573" lon="6.49226">
        <ele>1494.1190185547</ele>
        <time>2019-04-13T11:59:18Z</time>
      </trkpt>
      <trkpt lat="45.92566" lon="6.49224">
        <ele>1494.0999755859</ele>
        <time>2019-04-13T11:59:29Z</time>
      </trkpt>
      <trkpt lat="45.92558" lon="6.49222">
        <ele>1494.375</ele>
        <time>2019-04-13T11:59:38Z</time>
      </trkpt>
      <trkpt lat="45.92551" lon="6.49223">
        <ele>1495.4420166016</ele>
        <time>2019-04-13T11:59:49Z</time>
      </trkpt>
      <trkpt lat="45.92544" lon="6.4922">
        <ele>1496.2709960938</ele>
        <time>2019-04-13T12:00:02Z</time>
      </trkpt>
      <trkpt lat="45.92536" lon="6.49217">
        <ele>1496.2159423828</ele>
        <time>2019-04-13T12:00:15Z</time>
      </trkpt>
      <trkpt lat="45.92529" lon="6.49214">
        <ele>1497.8950195312</ele>
        <time>2019-04-13T12:00:29Z</time>
      </trkpt>
      <trkpt lat="45.92521" lon="6.49209">
        <ele>1498.2960205078</ele>
        <time>2019-04-13T12:00:37Z</time>
      </trkpt>
      <trkpt lat="45.92505" lon="6.49201">
        <ele>1498.6469726562</ele>
        <time>2019-04-13T12:00:49Z</time>
      </trkpt>
      <trkpt lat="45.92498" lon="6.49197">
        <ele>1498.4720458984</ele>
        <time>2019-04-13T12:01:05Z</time>
      </trkpt>
      <trkpt lat="45.92491" lon="6.49193">
        <ele>1499.2020263672</ele>
        <time>2019-04-13T12:01:14Z</time>
      </trkpt>
      <trkpt lat="45.92486" lon="6.49187">
        <ele>1499.6939697266</ele>
        <time>2019-04-13T12:01:27Z</time>
      </trkpt>
      <trkpt lat="45.92479" lon="6.49181">
        <ele>1500.3089599609</ele>
        <time>2019-04-13T12:01:36Z</time>
      </trkpt>
      <trkpt lat="45.92472" lon="6.49178">
        <ele>1500.4830322266</ele>
        <time>2019-04-13T12:01:42Z</time>
      </trkpt>
      <trkpt lat="45.92465" lon="6.49174">
        <ele>1500.6700439453</ele>
        <time>2019-04-13T12:01:46Z</time>
      </trkpt>
      <trkpt lat="45.92457" lon="6.49172">
        <ele>1500.9840087891</ele>
        <time>2019-04-13T12:01:53Z</time>
      </trkpt>
      <trkpt lat="45.92438" lon="6.49157">
        <ele>1499.2740478516</ele>
        <time>2019-04-13T12:01:58Z</time>
      </trkpt>
      <trkpt lat="45.92431" lon="6.49152">
        <ele>1499.1700439453</ele>
        <time>2019-04-13T12:02:04Z</time>
      </trkpt>
      <trkpt lat="45.92422" lon="6.49148">
        <ele>1498.9849853516</ele>
        <time>2019-04-13T12:02:09Z</time>
      </trkpt>
      <trkpt lat="45.92401" lon="6.4915">
        <ele>1497.83203125</ele>
        <time>2019-04-13T12:02:14Z</time>
      </trkpt>
      <trkpt lat="45.92365" lon="6.49116">
        <ele>1492.5770263672</ele>
        <time>2019-04-13T12:02:20Z</time>
      </trkpt>
      <trkpt lat="45.92345" lon="6.49098">
        <ele>1489.4520263672</ele>
        <time>2019-04-13T12:02:24Z</time>
      </trkpt>
      <trkpt lat="45.92317" lon="6.49075">
        <ele>1486.7559814453</ele>
        <time>2019-04-13T12:02:29Z</time>
      </trkpt>
      <trkpt lat="45.92284" lon="6.49046">
        <ele>1479.7270507812</ele>
        <time>2019-04-13T12:02:34Z</time>
      </trkpt>
      <trkpt lat="45.92271" lon="6.4903">
        <ele>1473.9549560547</ele>
        <time>2019-04-13T12:02:36Z</time>
      </trkpt>
      <trkpt lat="45.9224" lon="6.48988">
        <ele>1465.5030517578</ele>
        <time>2019-04-13T12:02:41Z</time>
      </trkpt>
      <trkpt lat="45.92214" lon="6.48954">
        <ele>1461.4990234375</ele>
        <time>2019-04-13T12:02:46Z</time>
      </trkpt>
      <trkpt lat="45.92189" lon="6.48916">
        <ele>1457.2049560547</ele>
        <time>2019-04-13T12:02:51Z</time>
      </trkpt>
      <trkpt lat="45.92181" lon="6.48903">
        <ele>1455.6789550781</ele>
        <time>2019-04-13T12:02:53Z</time>
      </trkpt>
      <trkpt lat="45.92168" lon="6.48869">
        <ele>1453.1820068359</ele>
        <time>2019-04-13T12:02:59Z</time>
      </trkpt>
      <trkpt lat="45.92174" lon="6.48851">
        <ele>1454.2139892578</ele>
        <time>2019-04-13T12:03:15Z</time>
      </trkpt>
      <trkpt lat="45.9218" lon="6.48836">
        <ele>1455.0660400391</ele>
        <time>2019-04-13T12:03:28Z</time>
      </trkpt>
      <trkpt lat="45.92184" lon="6.48827">
        <ele>1456.1540527344</ele>
        <time>2019-04-13T12:03:42Z</time>
      </trkpt>
      <trkpt lat="45.92185" lon="6.48816">
        <ele>1457.3430175781</ele>
        <time>2019-04-13T12:03:55Z</time>
      </trkpt>
      <trkpt lat="45.92179" lon="6.48808">
        <ele>1458.1390380859</ele>
        <time>2019-04-13T12:04:22Z</time>
      </trkpt>
      <trkpt lat="45.92177" lon="6.48786">
        <ele>1458.7800292969</ele>
        <time>2019-04-13T12:04:55Z</time>
      </trkpt>
      <trkpt lat="45.92172" lon="6.48767">
        <ele>1459.6750488281</ele>
        <time>2019-04-13T12:05:23Z</time>
      </trkpt>
      <trkpt lat="45.9217" lon="6.48757">
        <ele>1459.8540039062</ele>
        <time>2019-04-13T12:05:34Z</time>
      </trkpt>
      <trkpt lat="45.92165" lon="6.48739">
        <ele>1460.7810058594</ele>
        <time>2019-04-13T12:05:55Z</time>
      </trkpt>
      <trkpt lat="45.92159" lon="6.48723">
        <ele>1462.6090087891</ele>
        <time>2019-04-13T12:06:15Z</time>
      </trkpt>
      <trkpt lat="45.92155" lon="6.48715">
        <ele>1462.7580566406</ele>
        <time>2019-04-13T12:06:25Z</time>
      </trkpt>
      <trkpt lat="45.92149" lon="6.48705">
        <ele>1463.6560058594</ele>
        <time>2019-04-13T12:06:39Z</time>
      </trkpt>
      <trkpt lat="45.9214" lon="6.4869">
        <ele>1464.8680419922</ele>
        <time>2019-04-13T12:06:53Z</time>
      </trkpt>
      <trkpt lat="45.92134" lon="6.48683">
        <ele>1465.0190429688</ele>
        <time>2019-04-13T12:07:02Z</time>
      </trkpt>
      <trkpt lat="45.9213" lon="6.48672">
        <ele>1465.0030517578</ele>
        <time>2019-04-13T12:07:10Z</time>
      </trkpt>
      <trkpt lat="45.92137" lon="6.48634">
        <ele>1466.4320068359</ele>
        <time>2019-04-13T12:07:16Z</time>
      </trkpt>
      <trkpt lat="45.92142" lon="6.48624">
        <ele>1465.4110107422</ele>
        <time>2019-04-13T12:07:18Z</time>
      </trkpt>
      <trkpt lat="45.92157" lon="6.48595">
        <ele>1461.3399658203</ele>
        <time>2019-04-13T12:07:24Z</time>
      </trkpt>
      <trkpt lat="45.92177" lon="6.48556">
        <ele>1461.5520019531</ele>
        <time>2019-04-13T12:07:30Z</time>
      </trkpt>
      <trkpt lat="45.92195" lon="6.48517">
        <ele>1456.4470214844</ele>
        <time>2019-04-13T12:07:35Z</time>
      </trkpt>
      <trkpt lat="45.92213" lon="6.4848">
        <ele>1450.2950439453</ele>
        <time>2019-04-13T12:07:40Z</time>
      </trkpt>
      <trkpt lat="45.92235" lon="6.48452">
        <ele>1447.1109619141</ele>
        <time>2019-04-13T12:07:46Z</time>
      </trkpt>
      <trkpt lat="45.92249" lon="6.48442">
        <ele>1447.623046875</ele>
        <time>2019-04-13T12:07:59Z</time>
      </trkpt>
      <trkpt lat="45.92255" lon="6.48435">
        <ele>1448.4360351562</ele>
        <time>2019-04-13T12:08:06Z</time>
      </trkpt>
      <trkpt lat="45.92263" lon="6.48432">
        <ele>1448.6280517578</ele>
        <time>2019-04-13T12:08:13Z</time>
      </trkpt>
      <trkpt lat="45.92283" lon="6.48428">
        <ele>1448.4460449219</ele>
        <time>2019-04-13T12:08:19Z</time>
      </trkpt>
      <trkpt lat="45.92305" lon="6.48418">
        <ele>1448.5379638672</ele>
        <time>2019-04-13T12:08:25Z</time>
      </trkpt>
      <trkpt lat="45.92314" lon="6.48412">
        <ele>1446.3990478516</ele>
        <time>2019-04-13T12:08:28Z</time>
      </trkpt>
      <trkpt lat="45.92337" lon="6.484">
        <ele>1444.0689697266</ele>
        <time>2019-04-13T12:08:35Z</time>
      </trkpt>
      <trkpt lat="45.92353" lon="6.48391">
        <ele>1443.4599609375</ele>
        <time>2019-04-13T12:08:42Z</time>
      </trkpt>
      <trkpt lat="45.92363" lon="6.48383">
        <ele>1442.6889648438</ele>
        <time>2019-04-13T12:08:54Z</time>
      </trkpt>
      <trkpt lat="45.92365" lon="6.48371">
        <ele>1443.7750244141</ele>
        <time>2019-04-13T12:09:16Z</time>
      </trkpt>
      <trkpt lat="45.92366" lon="6.48355">
        <ele>1444.2309570312</ele>
        <time>2019-04-13T12:10:04Z</time>
      </trkpt>
      <trkpt lat="45.92369" lon="6.48344">
        <ele>1444.1619873047</ele>
        <time>2019-04-13T12:10:31Z</time>
      </trkpt>
      <trkpt lat="45.92364" lon="6.48337">
        <ele>1444.2840576172</ele>
        <time>2019-04-13T12:13:23Z</time>
      </trkpt>
      <trkpt lat="45.92358" lon="6.48344">
        <ele>1444.7760009766</ele>
        <time>2019-04-13T12:14:39Z</time>
      </trkpt>
      <trkpt lat="45.92364" lon="6.4834">
        <ele>1444.91796875</ele>
        <time>2019-04-13T12:15:30Z</time>
      </trkpt>
      <trkpt lat="45.92371" lon="6.48335">
        <ele>1450.3260498047</ele>
        <time>2019-04-13T12:17:21Z</time>
      </trkpt>
    </trkseg>
  </trk>
</gpx>